<?xml version="1.0" encoding="UTF-8" standalone="no" ?>
<gpx xmlns="http://www.topografix.com/GPX/1/1" xmlns:xsi="http://www.w3.org/2001/XMLSchema-instance" xsi:schemaLocation="http://www.topografix.com/GPX/1/1 http://www.topografix.com/GPX/1/1/gpx.xsd" version="1.1" creator="VisuGPX - https://www.visugpx.com">
  <metadata>
    <name>V-83-le Muy</name>
    <desc><![CDATA[V-83-le Muy : dans les bois de Palayson
vendredi 10 février 2012]]></desc>
  </metadata>
  <trk>
    <name><![CDATA[2012-02-10-le muy]]></name>
    <trkseg>
      <trkpt lat="43.50459" lon="6.60219">
        <ele>94.245659</ele>
        <time>2012-02-10T13:09:14Z</time>
      </trkpt>
      <trkpt lat="43.50459" lon="6.60219">
        <ele>94.196243</ele>
        <time>2012-02-10T13:09:15Z</time>
      </trkpt>
      <trkpt lat="43.50468" lon="6.6022">
        <ele>94.400002</ele>
        <time>2012-02-10T13:10:20Z</time>
      </trkpt>
      <trkpt lat="43.50481" lon="6.60235">
        <ele>95</ele>
        <time>2012-02-10T13:10:44Z</time>
      </trkpt>
      <trkpt lat="43.50489" lon="6.60235">
        <ele>95.300003</ele>
        <time>2012-02-10T13:10:53Z</time>
      </trkpt>
      <trkpt lat="43.50497" lon="6.60238">
        <ele>96.5</ele>
        <time>2012-02-10T13:11:06Z</time>
      </trkpt>
      <trkpt lat="43.50506" lon="6.6024">
        <ele>95.800003</ele>
        <time>2012-02-10T13:11:18Z</time>
      </trkpt>
      <trkpt lat="43.50514" lon="6.6024">
        <ele>95.800003</ele>
        <time>2012-02-10T13:11:28Z</time>
      </trkpt>
      <trkpt lat="43.50515" lon="6.60241">
        <ele>95.800003</ele>
        <time>2012-02-10T13:11:29Z</time>
      </trkpt>
      <trkpt lat="43.50528" lon="6.60251">
        <ele>93.5</ele>
        <time>2012-02-10T13:11:48Z</time>
      </trkpt>
      <trkpt lat="43.50526" lon="6.60263">
        <ele>92.900002</ele>
        <time>2012-02-10T13:12:00Z</time>
      </trkpt>
      <trkpt lat="43.50522" lon="6.60273">
        <ele>92.900002</ele>
        <time>2012-02-10T13:12:10Z</time>
      </trkpt>
      <trkpt lat="43.50517" lon="6.60283">
        <ele>93</ele>
        <time>2012-02-10T13:12:20Z</time>
      </trkpt>
      <trkpt lat="43.50512" lon="6.60292">
        <ele>93.400002</ele>
        <time>2012-02-10T13:12:29Z</time>
      </trkpt>
      <trkpt lat="43.50511" lon="6.60293">
        <ele>93.599998</ele>
        <time>2012-02-10T13:12:30Z</time>
      </trkpt>
      <trkpt lat="43.50502" lon="6.60309">
        <ele>92.900002</ele>
        <time>2012-02-10T13:12:46Z</time>
      </trkpt>
      <trkpt lat="43.50497" lon="6.60319">
        <ele>92.900002</ele>
        <time>2012-02-10T13:12:54Z</time>
      </trkpt>
      <trkpt lat="43.50492" lon="6.60327">
        <ele>92.800003</ele>
        <time>2012-02-10T13:13:02Z</time>
      </trkpt>
      <trkpt lat="43.50486" lon="6.60337">
        <ele>92.199997</ele>
        <time>2012-02-10T13:13:10Z</time>
      </trkpt>
      <trkpt lat="43.50482" lon="6.60348">
        <ele>92.199997</ele>
        <time>2012-02-10T13:13:18Z</time>
      </trkpt>
      <trkpt lat="43.50481" lon="6.6036">
        <ele>91.900002</ele>
        <time>2012-02-10T13:13:26Z</time>
      </trkpt>
      <trkpt lat="43.50479" lon="6.60371">
        <ele>91.599998</ele>
        <time>2012-02-10T13:13:35Z</time>
      </trkpt>
      <trkpt lat="43.50479" lon="6.60372">
        <ele>91.599998</ele>
        <time>2012-02-10T13:13:36Z</time>
      </trkpt>
      <trkpt lat="43.50474" lon="6.60392">
        <ele>90.800003</ele>
        <time>2012-02-10T13:13:51Z</time>
      </trkpt>
      <trkpt lat="43.50468" lon="6.604">
        <ele>90.400002</ele>
        <time>2012-02-10T13:13:59Z</time>
      </trkpt>
      <trkpt lat="43.50461" lon="6.60405">
        <ele>90.800003</ele>
        <time>2012-02-10T13:14:07Z</time>
      </trkpt>
      <trkpt lat="43.50454" lon="6.60413">
        <ele>90.5</ele>
        <time>2012-02-10T13:14:16Z</time>
      </trkpt>
      <trkpt lat="43.5045" lon="6.60423">
        <ele>90.099998</ele>
        <time>2012-02-10T13:14:24Z</time>
      </trkpt>
      <trkpt lat="43.50443" lon="6.6043">
        <ele>89.599998</ele>
        <time>2012-02-10T13:14:31Z</time>
      </trkpt>
      <trkpt lat="43.50436" lon="6.60436">
        <ele>89.199997</ele>
        <time>2012-02-10T13:14:39Z</time>
      </trkpt>
      <trkpt lat="43.50435" lon="6.60437">
        <ele>89.199997</ele>
        <time>2012-02-10T13:14:40Z</time>
      </trkpt>
      <trkpt lat="43.50422" lon="6.60447">
        <ele>75.099998</ele>
        <time>2012-02-10T13:14:52Z</time>
      </trkpt>
      <trkpt lat="43.50416" lon="6.60454">
        <ele>73.5</ele>
        <time>2012-02-10T13:15:01Z</time>
      </trkpt>
      <trkpt lat="43.50411" lon="6.60463">
        <ele>73.300003</ele>
        <time>2012-02-10T13:15:08Z</time>
      </trkpt>
      <trkpt lat="43.50406" lon="6.60473">
        <ele>73.400002</ele>
        <time>2012-02-10T13:15:15Z</time>
      </trkpt>
      <trkpt lat="43.50403" lon="6.60483">
        <ele>72.900002</ele>
        <time>2012-02-10T13:15:23Z</time>
      </trkpt>
      <trkpt lat="43.50398" lon="6.60492">
        <ele>72.5</ele>
        <time>2012-02-10T13:15:32Z</time>
      </trkpt>
      <trkpt lat="43.50392" lon="6.60501">
        <ele>72.599998</ele>
        <time>2012-02-10T13:15:43Z</time>
      </trkpt>
      <trkpt lat="43.50391" lon="6.60502">
        <ele>72.599998</ele>
        <time>2012-02-10T13:15:44Z</time>
      </trkpt>
      <trkpt lat="43.50382" lon="6.6052">
        <ele>72.300003</ele>
        <time>2012-02-10T13:16:01Z</time>
      </trkpt>
      <trkpt lat="43.5038" lon="6.60531">
        <ele>72.099998</ele>
        <time>2012-02-10T13:16:08Z</time>
      </trkpt>
      <trkpt lat="43.50379" lon="6.60542">
        <ele>72.5</ele>
        <time>2012-02-10T13:16:14Z</time>
      </trkpt>
      <trkpt lat="43.50376" lon="6.60553">
        <ele>72.5</ele>
        <time>2012-02-10T13:16:21Z</time>
      </trkpt>
      <trkpt lat="43.50371" lon="6.60563">
        <ele>71.599998</ele>
        <time>2012-02-10T13:16:30Z</time>
      </trkpt>
      <trkpt lat="43.50368" lon="6.60574">
        <ele>71.5</ele>
        <time>2012-02-10T13:16:39Z</time>
      </trkpt>
      <trkpt lat="43.50367" lon="6.60585">
        <ele>71.599998</ele>
        <time>2012-02-10T13:16:47Z</time>
      </trkpt>
      <trkpt lat="43.50367" lon="6.60587">
        <ele>71.5</ele>
        <time>2012-02-10T13:16:48Z</time>
      </trkpt>
      <trkpt lat="43.50372" lon="6.60607">
        <ele>70.900002</ele>
        <time>2012-02-10T13:17:03Z</time>
      </trkpt>
      <trkpt lat="43.50376" lon="6.60617">
        <ele>70.400002</ele>
        <time>2012-02-10T13:17:10Z</time>
      </trkpt>
      <trkpt lat="43.50377" lon="6.60628">
        <ele>70.5</ele>
        <time>2012-02-10T13:17:17Z</time>
      </trkpt>
      <trkpt lat="43.50376" lon="6.60639">
        <ele>69.599998</ele>
        <time>2012-02-10T13:17:25Z</time>
      </trkpt>
      <trkpt lat="43.50372" lon="6.6065">
        <ele>69.300003</ele>
        <time>2012-02-10T13:17:33Z</time>
      </trkpt>
      <trkpt lat="43.5037" lon="6.60661">
        <ele>69.5</ele>
        <time>2012-02-10T13:17:41Z</time>
      </trkpt>
      <trkpt lat="43.50368" lon="6.60673">
        <ele>68.599998</ele>
        <time>2012-02-10T13:17:49Z</time>
      </trkpt>
      <trkpt lat="43.50368" lon="6.60674">
        <ele>68.400002</ele>
        <time>2012-02-10T13:17:50Z</time>
      </trkpt>
      <trkpt lat="43.50366" lon="6.60696">
        <ele>67.900002</ele>
        <time>2012-02-10T13:18:05Z</time>
      </trkpt>
      <trkpt lat="43.50366" lon="6.60707">
        <ele>67.300003</ele>
        <time>2012-02-10T13:18:13Z</time>
      </trkpt>
      <trkpt lat="43.50368" lon="6.60719">
        <ele>66.800003</ele>
        <time>2012-02-10T13:18:22Z</time>
      </trkpt>
      <trkpt lat="43.50368" lon="6.60731">
        <ele>66.300003</ele>
        <time>2012-02-10T13:18:31Z</time>
      </trkpt>
      <trkpt lat="43.50368" lon="6.60743">
        <ele>65.800003</ele>
        <time>2012-02-10T13:18:40Z</time>
      </trkpt>
      <trkpt lat="43.50367" lon="6.60754">
        <ele>65.300003</ele>
        <time>2012-02-10T13:18:48Z</time>
      </trkpt>
      <trkpt lat="43.50366" lon="6.60765">
        <ele>66.199997</ele>
        <time>2012-02-10T13:18:55Z</time>
      </trkpt>
      <trkpt lat="43.50366" lon="6.60767">
        <ele>66.199997</ele>
        <time>2012-02-10T13:18:56Z</time>
      </trkpt>
      <trkpt lat="43.50365" lon="6.60788">
        <ele>66.199997</ele>
        <time>2012-02-10T13:19:11Z</time>
      </trkpt>
      <trkpt lat="43.50362" lon="6.608">
        <ele>65.599998</ele>
        <time>2012-02-10T13:19:20Z</time>
      </trkpt>
      <trkpt lat="43.50359" lon="6.60811">
        <ele>64.800003</ele>
        <time>2012-02-10T13:19:28Z</time>
      </trkpt>
      <trkpt lat="43.50357" lon="6.60822">
        <ele>64.199997</ele>
        <time>2012-02-10T13:19:37Z</time>
      </trkpt>
      <trkpt lat="43.50358" lon="6.60834">
        <ele>64.300003</ele>
        <time>2012-02-10T13:19:45Z</time>
      </trkpt>
      <trkpt lat="43.50359" lon="6.60846">
        <ele>64.199997</ele>
        <time>2012-02-10T13:19:54Z</time>
      </trkpt>
      <trkpt lat="43.50358" lon="6.60858">
        <ele>63.5</ele>
        <time>2012-02-10T13:20:02Z</time>
      </trkpt>
      <trkpt lat="43.50358" lon="6.6086">
        <ele>63.400002</ele>
        <time>2012-02-10T13:20:03Z</time>
      </trkpt>
      <trkpt lat="43.50357" lon="6.60882">
        <ele>63.200001</ele>
        <time>2012-02-10T13:20:18Z</time>
      </trkpt>
      <trkpt lat="43.50356" lon="6.60893">
        <ele>63.200001</ele>
        <time>2012-02-10T13:20:25Z</time>
      </trkpt>
      <trkpt lat="43.50355" lon="6.60904">
        <ele>62.599998</ele>
        <time>2012-02-10T13:20:34Z</time>
      </trkpt>
      <trkpt lat="43.50353" lon="6.60915">
        <ele>62.299999</ele>
        <time>2012-02-10T13:20:43Z</time>
      </trkpt>
      <trkpt lat="43.50351" lon="6.60927">
        <ele>62.799999</ele>
        <time>2012-02-10T13:20:52Z</time>
      </trkpt>
      <trkpt lat="43.50351" lon="6.60939">
        <ele>62.5</ele>
        <time>2012-02-10T13:21:00Z</time>
      </trkpt>
      <trkpt lat="43.50347" lon="6.60948">
        <ele>62.5</ele>
        <time>2012-02-10T13:21:08Z</time>
      </trkpt>
      <trkpt lat="43.50346" lon="6.60949">
        <ele>63</ele>
        <time>2012-02-10T13:21:09Z</time>
      </trkpt>
      <trkpt lat="43.50336" lon="6.60966">
        <ele>63.299999</ele>
        <time>2012-02-10T13:21:25Z</time>
      </trkpt>
      <trkpt lat="43.5033" lon="6.60974">
        <ele>63.900002</ele>
        <time>2012-02-10T13:21:33Z</time>
      </trkpt>
      <trkpt lat="43.50325" lon="6.60983">
        <ele>64</ele>
        <time>2012-02-10T13:21:41Z</time>
      </trkpt>
      <trkpt lat="43.50321" lon="6.60993">
        <ele>64.5</ele>
        <time>2012-02-10T13:21:49Z</time>
      </trkpt>
      <trkpt lat="43.50317" lon="6.61004">
        <ele>64.400002</ele>
        <time>2012-02-10T13:21:58Z</time>
      </trkpt>
      <trkpt lat="43.50314" lon="6.61014">
        <ele>64.199997</ele>
        <time>2012-02-10T13:22:06Z</time>
      </trkpt>
      <trkpt lat="43.50311" lon="6.61025">
        <ele>66.199997</ele>
        <time>2012-02-10T13:22:14Z</time>
      </trkpt>
      <trkpt lat="43.50311" lon="6.61027">
        <ele>66</ele>
        <time>2012-02-10T13:22:15Z</time>
      </trkpt>
      <trkpt lat="43.50305" lon="6.61048">
        <ele>66.5</ele>
        <time>2012-02-10T13:22:31Z</time>
      </trkpt>
      <trkpt lat="43.50299" lon="6.61056">
        <ele>66.400002</ele>
        <time>2012-02-10T13:22:38Z</time>
      </trkpt>
      <trkpt lat="43.50295" lon="6.61066">
        <ele>66.300003</ele>
        <time>2012-02-10T13:22:47Z</time>
      </trkpt>
      <trkpt lat="43.50289" lon="6.61075">
        <ele>66.099998</ele>
        <time>2012-02-10T13:22:55Z</time>
      </trkpt>
      <trkpt lat="43.50284" lon="6.61083">
        <ele>66.599998</ele>
        <time>2012-02-10T13:23:02Z</time>
      </trkpt>
      <trkpt lat="43.5028" lon="6.61093">
        <ele>65.400002</ele>
        <time>2012-02-10T13:23:08Z</time>
      </trkpt>
      <trkpt lat="43.50278" lon="6.61104">
        <ele>65.599998</ele>
        <time>2012-02-10T13:23:16Z</time>
      </trkpt>
      <trkpt lat="43.50277" lon="6.61105">
        <ele>65.300003</ele>
        <time>2012-02-10T13:23:17Z</time>
      </trkpt>
      <trkpt lat="43.50269" lon="6.61124">
        <ele>64.900002</ele>
        <time>2012-02-10T13:23:32Z</time>
      </trkpt>
      <trkpt lat="43.50264" lon="6.61133">
        <ele>64.300003</ele>
        <time>2012-02-10T13:23:40Z</time>
      </trkpt>
      <trkpt lat="43.50258" lon="6.61141">
        <ele>63.599998</ele>
        <time>2012-02-10T13:23:48Z</time>
      </trkpt>
      <trkpt lat="43.50252" lon="6.6115">
        <ele>63.400002</ele>
        <time>2012-02-10T13:23:55Z</time>
      </trkpt>
      <trkpt lat="43.50248" lon="6.6116">
        <ele>63.099998</ele>
        <time>2012-02-10T13:24:03Z</time>
      </trkpt>
      <trkpt lat="43.50244" lon="6.61169">
        <ele>62.900002</ele>
        <time>2012-02-10T13:24:11Z</time>
      </trkpt>
      <trkpt lat="43.50239" lon="6.61177">
        <ele>62</ele>
        <time>2012-02-10T13:24:18Z</time>
      </trkpt>
      <trkpt lat="43.50238" lon="6.61179">
        <ele>62.200001</ele>
        <time>2012-02-10T13:24:19Z</time>
      </trkpt>
      <trkpt lat="43.50229" lon="6.61197">
        <ele>60.900002</ele>
        <time>2012-02-10T13:24:35Z</time>
      </trkpt>
      <trkpt lat="43.50224" lon="6.61207">
        <ele>60</ele>
        <time>2012-02-10T13:24:43Z</time>
      </trkpt>
      <trkpt lat="43.50219" lon="6.61217">
        <ele>60</ele>
        <time>2012-02-10T13:24:53Z</time>
      </trkpt>
      <trkpt lat="43.50214" lon="6.61227">
        <ele>60.799999</ele>
        <time>2012-02-10T13:25:01Z</time>
      </trkpt>
      <trkpt lat="43.50208" lon="6.61236">
        <ele>61.5</ele>
        <time>2012-02-10T13:25:10Z</time>
      </trkpt>
      <trkpt lat="43.50203" lon="6.61246">
        <ele>62.599998</ele>
        <time>2012-02-10T13:25:20Z</time>
      </trkpt>
      <trkpt lat="43.50202" lon="6.61247">
        <ele>62.5</ele>
        <time>2012-02-10T13:25:21Z</time>
      </trkpt>
      <trkpt lat="43.50192" lon="6.61263">
        <ele>62.799999</ele>
        <time>2012-02-10T13:25:36Z</time>
      </trkpt>
      <trkpt lat="43.50187" lon="6.61271">
        <ele>64</ele>
        <time>2012-02-10T13:25:45Z</time>
      </trkpt>
      <trkpt lat="43.50181" lon="6.6128">
        <ele>64.900002</ele>
        <time>2012-02-10T13:25:54Z</time>
      </trkpt>
      <trkpt lat="43.50175" lon="6.61289">
        <ele>64.599998</ele>
        <time>2012-02-10T13:26:02Z</time>
      </trkpt>
      <trkpt lat="43.50168" lon="6.61297">
        <ele>65.300003</ele>
        <time>2012-02-10T13:26:11Z</time>
      </trkpt>
      <trkpt lat="43.50161" lon="6.61304">
        <ele>65.599998</ele>
        <time>2012-02-10T13:26:20Z</time>
      </trkpt>
      <trkpt lat="43.50154" lon="6.6131">
        <ele>66</ele>
        <time>2012-02-10T13:26:28Z</time>
      </trkpt>
      <trkpt lat="43.50153" lon="6.61311">
        <ele>65.800003</ele>
        <time>2012-02-10T13:26:29Z</time>
      </trkpt>
      <trkpt lat="43.5014" lon="6.61324">
        <ele>64.900002</ele>
        <time>2012-02-10T13:26:46Z</time>
      </trkpt>
      <trkpt lat="43.50133" lon="6.61331">
        <ele>64.699997</ele>
        <time>2012-02-10T13:26:55Z</time>
      </trkpt>
      <trkpt lat="43.50126" lon="6.61338">
        <ele>64.800003</ele>
        <time>2012-02-10T13:27:04Z</time>
      </trkpt>
      <trkpt lat="43.50118" lon="6.61344">
        <ele>64.900002</ele>
        <time>2012-02-10T13:27:13Z</time>
      </trkpt>
      <trkpt lat="43.50111" lon="6.61349">
        <ele>65</ele>
        <time>2012-02-10T13:27:21Z</time>
      </trkpt>
      <trkpt lat="43.50104" lon="6.61355">
        <ele>64.900002</ele>
        <time>2012-02-10T13:27:29Z</time>
      </trkpt>
      <trkpt lat="43.50103" lon="6.61355">
        <ele>65</ele>
        <time>2012-02-10T13:27:30Z</time>
      </trkpt>
      <trkpt lat="43.50089" lon="6.61366">
        <ele>65.5</ele>
        <time>2012-02-10T13:27:46Z</time>
      </trkpt>
      <trkpt lat="43.50082" lon="6.61373">
        <ele>65.599998</ele>
        <time>2012-02-10T13:27:54Z</time>
      </trkpt>
      <trkpt lat="43.50075" lon="6.6138">
        <ele>66.400002</ele>
        <time>2012-02-10T13:28:03Z</time>
      </trkpt>
      <trkpt lat="43.50068" lon="6.61387">
        <ele>66.300003</ele>
        <time>2012-02-10T13:28:11Z</time>
      </trkpt>
      <trkpt lat="43.50061" lon="6.61394">
        <ele>66.099998</ele>
        <time>2012-02-10T13:28:19Z</time>
      </trkpt>
      <trkpt lat="43.50054" lon="6.61401">
        <ele>65.800003</ele>
        <time>2012-02-10T13:28:27Z</time>
      </trkpt>
      <trkpt lat="43.50049" lon="6.61409">
        <ele>66</ele>
        <time>2012-02-10T13:28:35Z</time>
      </trkpt>
      <trkpt lat="43.50048" lon="6.6141">
        <ele>66.099998</ele>
        <time>2012-02-10T13:28:36Z</time>
      </trkpt>
      <trkpt lat="43.50039" lon="6.61427">
        <ele>65.599998</ele>
        <time>2012-02-10T13:28:49Z</time>
      </trkpt>
      <trkpt lat="43.50033" lon="6.61437">
        <ele>66.199997</ele>
        <time>2012-02-10T13:28:57Z</time>
      </trkpt>
      <trkpt lat="43.50028" lon="6.61446">
        <ele>65.199997</ele>
        <time>2012-02-10T13:29:06Z</time>
      </trkpt>
      <trkpt lat="43.50023" lon="6.61454">
        <ele>64.900002</ele>
        <time>2012-02-10T13:29:13Z</time>
      </trkpt>
      <trkpt lat="43.50018" lon="6.61464">
        <ele>64.599998</ele>
        <time>2012-02-10T13:29:21Z</time>
      </trkpt>
      <trkpt lat="43.50013" lon="6.61472">
        <ele>64.599998</ele>
        <time>2012-02-10T13:29:28Z</time>
      </trkpt>
      <trkpt lat="43.50008" lon="6.61481">
        <ele>64</ele>
        <time>2012-02-10T13:29:35Z</time>
      </trkpt>
      <trkpt lat="43.50001" lon="6.61489">
        <ele>64.5</ele>
        <time>2012-02-10T13:30:34Z</time>
      </trkpt>
      <trkpt lat="43.5" lon="6.6149">
        <ele>64.400002</ele>
        <time>2012-02-10T13:30:35Z</time>
      </trkpt>
      <trkpt lat="43.4999" lon="6.61508">
        <ele>64</ele>
        <time>2012-02-10T13:30:52Z</time>
      </trkpt>
      <trkpt lat="43.49984" lon="6.61517">
        <ele>63.400002</ele>
        <time>2012-02-10T13:31:04Z</time>
      </trkpt>
      <trkpt lat="43.49978" lon="6.61525">
        <ele>62.900002</ele>
        <time>2012-02-10T13:31:12Z</time>
      </trkpt>
      <trkpt lat="43.49973" lon="6.61534">
        <ele>62.599998</ele>
        <time>2012-02-10T13:31:18Z</time>
      </trkpt>
      <trkpt lat="43.49968" lon="6.61543">
        <ele>62.700001</ele>
        <time>2012-02-10T13:31:28Z</time>
      </trkpt>
      <trkpt lat="43.49962" lon="6.61552">
        <ele>62</ele>
        <time>2012-02-10T13:31:36Z</time>
      </trkpt>
      <trkpt lat="43.49962" lon="6.61553">
        <ele>61.799999</ele>
        <time>2012-02-10T13:31:37Z</time>
      </trkpt>
      <trkpt lat="43.49949" lon="6.61567">
        <ele>62.200001</ele>
        <time>2012-02-10T13:31:51Z</time>
      </trkpt>
      <trkpt lat="43.49942" lon="6.61575">
        <ele>61.700001</ele>
        <time>2012-02-10T13:31:59Z</time>
      </trkpt>
      <trkpt lat="43.49935" lon="6.61581">
        <ele>62.299999</ele>
        <time>2012-02-10T13:32:07Z</time>
      </trkpt>
      <trkpt lat="43.49928" lon="6.61587">
        <ele>61.799999</ele>
        <time>2012-02-10T13:32:15Z</time>
      </trkpt>
      <trkpt lat="43.49921" lon="6.61595">
        <ele>61.799999</ele>
        <time>2012-02-10T13:32:23Z</time>
      </trkpt>
      <trkpt lat="43.49915" lon="6.61602">
        <ele>61.5</ele>
        <time>2012-02-10T13:32:34Z</time>
      </trkpt>
      <trkpt lat="43.49909" lon="6.61611">
        <ele>61.400002</ele>
        <time>2012-02-10T13:32:43Z</time>
      </trkpt>
      <trkpt lat="43.49908" lon="6.61613">
        <ele>61.400002</ele>
        <time>2012-02-10T13:32:44Z</time>
      </trkpt>
      <trkpt lat="43.49897" lon="6.61629">
        <ele>61</ele>
        <time>2012-02-10T13:33:01Z</time>
      </trkpt>
      <trkpt lat="43.49893" lon="6.6164">
        <ele>60.700001</ele>
        <time>2012-02-10T13:33:18Z</time>
      </trkpt>
      <trkpt lat="43.49889" lon="6.61651">
        <ele>59.700001</ele>
        <time>2012-02-10T13:33:40Z</time>
      </trkpt>
      <trkpt lat="43.49886" lon="6.61662">
        <ele>57.799999</ele>
        <time>2012-02-10T13:33:51Z</time>
      </trkpt>
      <trkpt lat="43.49886" lon="6.61663">
        <ele>57.299999</ele>
        <time>2012-02-10T13:33:52Z</time>
      </trkpt>
      <trkpt lat="43.49884" lon="6.61685">
        <ele>52.700001</ele>
        <time>2012-02-10T13:34:14Z</time>
      </trkpt>
      <trkpt lat="43.49882" lon="6.61697">
        <ele>52</ele>
        <time>2012-02-10T13:34:22Z</time>
      </trkpt>
      <trkpt lat="43.49875" lon="6.61705">
        <ele>50.900002</ele>
        <time>2012-02-10T13:34:31Z</time>
      </trkpt>
      <trkpt lat="43.49867" lon="6.61704">
        <ele>51.099998</ele>
        <time>2012-02-10T13:34:41Z</time>
      </trkpt>
      <trkpt lat="43.49858" lon="6.61703">
        <ele>49.799999</ele>
        <time>2012-02-10T13:34:52Z</time>
      </trkpt>
      <trkpt lat="43.49858" lon="6.61702">
        <ele>49.299999</ele>
        <time>2012-02-10T13:34:53Z</time>
      </trkpt>
      <trkpt lat="43.49842" lon="6.61697">
        <ele>47.700001</ele>
        <time>2012-02-10T13:35:07Z</time>
      </trkpt>
      <trkpt lat="43.49834" lon="6.61697">
        <ele>46.5</ele>
        <time>2012-02-10T13:35:15Z</time>
      </trkpt>
      <trkpt lat="43.49826" lon="6.61702">
        <ele>45.700001</ele>
        <time>2012-02-10T13:35:24Z</time>
      </trkpt>
      <trkpt lat="43.49822" lon="6.61712">
        <ele>45.200001</ele>
        <time>2012-02-10T13:35:32Z</time>
      </trkpt>
      <trkpt lat="43.49817" lon="6.61722">
        <ele>45</ele>
        <time>2012-02-10T13:35:41Z</time>
      </trkpt>
      <trkpt lat="43.49811" lon="6.6173">
        <ele>44.599998</ele>
        <time>2012-02-10T13:35:50Z</time>
      </trkpt>
      <trkpt lat="43.49804" lon="6.61736">
        <ele>44.200001</ele>
        <time>2012-02-10T13:36:00Z</time>
      </trkpt>
      <trkpt lat="43.49803" lon="6.61736">
        <ele>44.099998</ele>
        <time>2012-02-10T13:36:01Z</time>
      </trkpt>
      <trkpt lat="43.49794" lon="6.61755">
        <ele>43.099998</ele>
        <time>2012-02-10T13:36:18Z</time>
      </trkpt>
      <trkpt lat="43.49792" lon="6.61766">
        <ele>43</ele>
        <time>2012-02-10T13:36:25Z</time>
      </trkpt>
      <trkpt lat="43.49791" lon="6.61778">
        <ele>42.900002</ele>
        <time>2012-02-10T13:36:33Z</time>
      </trkpt>
      <trkpt lat="43.4979" lon="6.61789">
        <ele>42.400002</ele>
        <time>2012-02-10T13:36:43Z</time>
      </trkpt>
      <trkpt lat="43.49788" lon="6.61801">
        <ele>42.599998</ele>
        <time>2012-02-10T13:36:53Z</time>
      </trkpt>
      <trkpt lat="43.49788" lon="6.61813">
        <ele>41.799999</ele>
        <time>2012-02-10T13:37:03Z</time>
      </trkpt>
      <trkpt lat="43.49788" lon="6.61815">
        <ele>42.200001</ele>
        <time>2012-02-10T13:37:04Z</time>
      </trkpt>
      <trkpt lat="43.49786" lon="6.61837">
        <ele>41.700001</ele>
        <time>2012-02-10T13:37:21Z</time>
      </trkpt>
      <trkpt lat="43.49782" lon="6.61847">
        <ele>41.900002</ele>
        <time>2012-02-10T13:37:33Z</time>
      </trkpt>
      <trkpt lat="43.49775" lon="6.61855">
        <ele>41.200001</ele>
        <time>2012-02-10T13:38:04Z</time>
      </trkpt>
      <trkpt lat="43.49775" lon="6.61855">
        <ele>41.200001</ele>
        <time>2012-02-10T13:38:05Z</time>
      </trkpt>
      <trkpt lat="43.49789" lon="6.61869">
        <ele>42.400002</ele>
        <time>2012-02-10T13:38:39Z</time>
      </trkpt>
      <trkpt lat="43.49796" lon="6.61874">
        <ele>41.400002</ele>
        <time>2012-02-10T13:38:49Z</time>
      </trkpt>
      <trkpt lat="43.49805" lon="6.61879">
        <ele>42.700001</ele>
        <time>2012-02-10T13:39:12Z</time>
      </trkpt>
      <trkpt lat="43.49805" lon="6.61879">
        <ele>42.599998</ele>
        <time>2012-02-10T13:39:13Z</time>
      </trkpt>
      <trkpt lat="43.4979" lon="6.61893">
        <ele>41.700001</ele>
        <time>2012-02-10T13:39:45Z</time>
      </trkpt>
      <trkpt lat="43.49785" lon="6.61902">
        <ele>41.799999</ele>
        <time>2012-02-10T13:39:55Z</time>
      </trkpt>
      <trkpt lat="43.4978" lon="6.61913">
        <ele>40.400002</ele>
        <time>2012-02-10T13:40:05Z</time>
      </trkpt>
      <trkpt lat="43.49775" lon="6.6192">
        <ele>40.799999</ele>
        <time>2012-02-10T13:40:12Z</time>
      </trkpt>
      <trkpt lat="43.4977" lon="6.61929">
        <ele>40.400002</ele>
        <time>2012-02-10T13:40:20Z</time>
      </trkpt>
      <trkpt lat="43.49769" lon="6.6193">
        <ele>40.400002</ele>
        <time>2012-02-10T13:40:21Z</time>
      </trkpt>
      <trkpt lat="43.49759" lon="6.61948">
        <ele>39.700001</ele>
        <time>2012-02-10T13:40:49Z</time>
      </trkpt>
      <trkpt lat="43.49754" lon="6.61957">
        <ele>41.299999</ele>
        <time>2012-02-10T13:40:58Z</time>
      </trkpt>
      <trkpt lat="43.4975" lon="6.61966">
        <ele>41.799999</ele>
        <time>2012-02-10T13:41:06Z</time>
      </trkpt>
      <trkpt lat="43.49745" lon="6.61976">
        <ele>42.099998</ele>
        <time>2012-02-10T13:41:15Z</time>
      </trkpt>
      <trkpt lat="43.49739" lon="6.61985">
        <ele>43.900002</ele>
        <time>2012-02-10T13:41:32Z</time>
      </trkpt>
      <trkpt lat="43.49739" lon="6.61986">
        <ele>44.099998</ele>
        <time>2012-02-10T13:41:33Z</time>
      </trkpt>
      <trkpt lat="43.49723" lon="6.6198">
        <ele>45</ele>
        <time>2012-02-10T13:41:54Z</time>
      </trkpt>
      <trkpt lat="43.49715" lon="6.61976">
        <ele>45.5</ele>
        <time>2012-02-10T13:42:04Z</time>
      </trkpt>
      <trkpt lat="43.49707" lon="6.61973">
        <ele>46.400002</ele>
        <time>2012-02-10T13:42:15Z</time>
      </trkpt>
      <trkpt lat="43.49698" lon="6.61973">
        <ele>47.700001</ele>
        <time>2012-02-10T13:42:24Z</time>
      </trkpt>
      <trkpt lat="43.4969" lon="6.61976">
        <ele>46.799999</ele>
        <time>2012-02-10T13:42:33Z</time>
      </trkpt>
      <trkpt lat="43.4969" lon="6.61977">
        <ele>47.700001</ele>
        <time>2012-02-10T13:42:34Z</time>
      </trkpt>
      <trkpt lat="43.49679" lon="6.61994">
        <ele>49.299999</ele>
        <time>2012-02-10T13:42:52Z</time>
      </trkpt>
      <trkpt lat="43.49674" lon="6.62002">
        <ele>50</ele>
        <time>2012-02-10T13:43:01Z</time>
      </trkpt>
      <trkpt lat="43.49668" lon="6.62011">
        <ele>50.200001</ele>
        <time>2012-02-10T13:43:11Z</time>
      </trkpt>
      <trkpt lat="43.4966" lon="6.62014">
        <ele>50.400002</ele>
        <time>2012-02-10T13:43:21Z</time>
      </trkpt>
      <trkpt lat="43.49651" lon="6.62016">
        <ele>50.700001</ele>
        <time>2012-02-10T13:43:32Z</time>
      </trkpt>
      <trkpt lat="43.49643" lon="6.62017">
        <ele>51.799999</ele>
        <time>2012-02-10T13:43:41Z</time>
      </trkpt>
      <trkpt lat="43.49642" lon="6.62017">
        <ele>52</ele>
        <time>2012-02-10T13:43:42Z</time>
      </trkpt>
      <trkpt lat="43.49627" lon="6.62017">
        <ele>51.799999</ele>
        <time>2012-02-10T13:44:00Z</time>
      </trkpt>
      <trkpt lat="43.49618" lon="6.62014">
        <ele>51.799999</ele>
        <time>2012-02-10T13:44:10Z</time>
      </trkpt>
      <trkpt lat="43.49609" lon="6.62013">
        <ele>52.5</ele>
        <time>2012-02-10T13:44:20Z</time>
      </trkpt>
      <trkpt lat="43.49601" lon="6.62011">
        <ele>52.5</ele>
        <time>2012-02-10T13:44:30Z</time>
      </trkpt>
      <trkpt lat="43.49593" lon="6.62007">
        <ele>52.599998</ele>
        <time>2012-02-10T13:44:39Z</time>
      </trkpt>
      <trkpt lat="43.49585" lon="6.62002">
        <ele>52.900002</ele>
        <time>2012-02-10T13:44:45Z</time>
      </trkpt>
      <trkpt lat="43.49584" lon="6.62002">
        <ele>52.799999</ele>
        <time>2012-02-10T13:44:46Z</time>
      </trkpt>
      <trkpt lat="43.4957" lon="6.61993">
        <ele>52.599998</ele>
        <time>2012-02-10T13:45:03Z</time>
      </trkpt>
      <trkpt lat="43.49563" lon="6.61985">
        <ele>51.599998</ele>
        <time>2012-02-10T13:45:10Z</time>
      </trkpt>
      <trkpt lat="43.49556" lon="6.6198">
        <ele>52.099998</ele>
        <time>2012-02-10T13:45:20Z</time>
      </trkpt>
      <trkpt lat="43.49548" lon="6.61974">
        <ele>51.900002</ele>
        <time>2012-02-10T13:45:29Z</time>
      </trkpt>
      <trkpt lat="43.4954" lon="6.61971">
        <ele>52.200001</ele>
        <time>2012-02-10T13:45:40Z</time>
      </trkpt>
      <trkpt lat="43.49533" lon="6.61965">
        <ele>51.799999</ele>
        <time>2012-02-10T13:45:47Z</time>
      </trkpt>
      <trkpt lat="43.49532" lon="6.61964">
        <ele>51.700001</ele>
        <time>2012-02-10T13:45:48Z</time>
      </trkpt>
      <trkpt lat="43.49518" lon="6.61954">
        <ele>50.900002</ele>
        <time>2012-02-10T13:46:04Z</time>
      </trkpt>
      <trkpt lat="43.4951" lon="6.61949">
        <ele>50.400002</ele>
        <time>2012-02-10T13:46:15Z</time>
      </trkpt>
      <trkpt lat="43.49503" lon="6.61944">
        <ele>49.5</ele>
        <time>2012-02-10T13:46:24Z</time>
      </trkpt>
      <trkpt lat="43.49496" lon="6.61938">
        <ele>49.900002</ele>
        <time>2012-02-10T13:46:32Z</time>
      </trkpt>
      <trkpt lat="43.49488" lon="6.61933">
        <ele>48.900002</ele>
        <time>2012-02-10T13:46:43Z</time>
      </trkpt>
      <trkpt lat="43.4948" lon="6.6193">
        <ele>49.099998</ele>
        <time>2012-02-10T13:46:52Z</time>
      </trkpt>
      <trkpt lat="43.49479" lon="6.61929">
        <ele>49.099998</ele>
        <time>2012-02-10T13:46:53Z</time>
      </trkpt>
      <trkpt lat="43.49464" lon="6.6192">
        <ele>49</ele>
        <time>2012-02-10T13:47:11Z</time>
      </trkpt>
      <trkpt lat="43.49456" lon="6.61916">
        <ele>49.900002</ele>
        <time>2012-02-10T13:47:21Z</time>
      </trkpt>
      <trkpt lat="43.49449" lon="6.6191">
        <ele>50.400002</ele>
        <time>2012-02-10T13:47:30Z</time>
      </trkpt>
      <trkpt lat="43.49442" lon="6.61906">
        <ele>50.599998</ele>
        <time>2012-02-10T13:47:36Z</time>
      </trkpt>
      <trkpt lat="43.49434" lon="6.61902">
        <ele>50.599998</ele>
        <time>2012-02-10T13:47:45Z</time>
      </trkpt>
      <trkpt lat="43.49426" lon="6.61899">
        <ele>51</ele>
        <time>2012-02-10T13:47:56Z</time>
      </trkpt>
      <trkpt lat="43.49425" lon="6.61898">
        <ele>51</ele>
        <time>2012-02-10T13:47:57Z</time>
      </trkpt>
      <trkpt lat="43.4942" lon="6.61879">
        <ele>51.599998</ele>
        <time>2012-02-10T13:48:30Z</time>
      </trkpt>
      <trkpt lat="43.49424" lon="6.61869">
        <ele>52.099998</ele>
        <time>2012-02-10T13:48:42Z</time>
      </trkpt>
      <trkpt lat="43.4943" lon="6.6186">
        <ele>52.700001</ele>
        <time>2012-02-10T13:48:51Z</time>
      </trkpt>
      <trkpt lat="43.49435" lon="6.61851">
        <ele>52.400002</ele>
        <time>2012-02-10T13:49:00Z</time>
      </trkpt>
      <trkpt lat="43.49436" lon="6.6185">
        <ele>52.700001</ele>
        <time>2012-02-10T13:49:01Z</time>
      </trkpt>
      <trkpt lat="43.49444" lon="6.61831">
        <ele>53.5</ele>
        <time>2012-02-10T13:49:21Z</time>
      </trkpt>
      <trkpt lat="43.49448" lon="6.6182">
        <ele>53.400002</ele>
        <time>2012-02-10T13:49:32Z</time>
      </trkpt>
      <trkpt lat="43.49451" lon="6.61809">
        <ele>54</ele>
        <time>2012-02-10T13:49:42Z</time>
      </trkpt>
      <trkpt lat="43.49453" lon="6.61798">
        <ele>54</ele>
        <time>2012-02-10T13:49:50Z</time>
      </trkpt>
      <trkpt lat="43.49455" lon="6.61786">
        <ele>54.400002</ele>
        <time>2012-02-10T13:49:59Z</time>
      </trkpt>
      <trkpt lat="43.49458" lon="6.61775">
        <ele>54.799999</ele>
        <time>2012-02-10T13:50:07Z</time>
      </trkpt>
      <trkpt lat="43.49458" lon="6.61774">
        <ele>54.700001</ele>
        <time>2012-02-10T13:50:08Z</time>
      </trkpt>
      <trkpt lat="43.49464" lon="6.61753">
        <ele>55.400002</ele>
        <time>2012-02-10T13:50:25Z</time>
      </trkpt>
      <trkpt lat="43.49465" lon="6.61741">
        <ele>55.5</ele>
        <time>2012-02-10T13:50:35Z</time>
      </trkpt>
      <trkpt lat="43.49468" lon="6.6173">
        <ele>55.900002</ele>
        <time>2012-02-10T13:50:43Z</time>
      </trkpt>
      <trkpt lat="43.49472" lon="6.6172">
        <ele>55.200001</ele>
        <time>2012-02-10T13:50:53Z</time>
      </trkpt>
      <trkpt lat="43.49476" lon="6.61709">
        <ele>56.599998</ele>
        <time>2012-02-10T13:51:01Z</time>
      </trkpt>
      <trkpt lat="43.49479" lon="6.61698">
        <ele>56.599998</ele>
        <time>2012-02-10T13:51:10Z</time>
      </trkpt>
      <trkpt lat="43.49479" lon="6.61697">
        <ele>56.400002</ele>
        <time>2012-02-10T13:51:11Z</time>
      </trkpt>
      <trkpt lat="43.49483" lon="6.61675">
        <ele>58.099998</ele>
        <time>2012-02-10T13:51:28Z</time>
      </trkpt>
      <trkpt lat="43.49485" lon="6.61663">
        <ele>58.299999</ele>
        <time>2012-02-10T13:51:39Z</time>
      </trkpt>
      <trkpt lat="43.49487" lon="6.61651">
        <ele>58.299999</ele>
        <time>2012-02-10T13:51:48Z</time>
      </trkpt>
      <trkpt lat="43.49488" lon="6.6164">
        <ele>59</ele>
        <time>2012-02-10T13:51:57Z</time>
      </trkpt>
      <trkpt lat="43.49489" lon="6.61629">
        <ele>59.400002</ele>
        <time>2012-02-10T13:52:06Z</time>
      </trkpt>
      <trkpt lat="43.49489" lon="6.61616">
        <ele>59.299999</ele>
        <time>2012-02-10T13:52:14Z</time>
      </trkpt>
      <trkpt lat="43.49489" lon="6.61615">
        <ele>59.599998</ele>
        <time>2012-02-10T13:52:15Z</time>
      </trkpt>
      <trkpt lat="43.49492" lon="6.61593">
        <ele>60.400002</ele>
        <time>2012-02-10T13:52:31Z</time>
      </trkpt>
      <trkpt lat="43.49493" lon="6.61582">
        <ele>60.700001</ele>
        <time>2012-02-10T13:52:38Z</time>
      </trkpt>
      <trkpt lat="43.49496" lon="6.61571">
        <ele>60.200001</ele>
        <time>2012-02-10T13:52:45Z</time>
      </trkpt>
      <trkpt lat="43.49498" lon="6.61559">
        <ele>60.799999</ele>
        <time>2012-02-10T13:52:53Z</time>
      </trkpt>
      <trkpt lat="43.49499" lon="6.61548">
        <ele>61.400002</ele>
        <time>2012-02-10T13:53:02Z</time>
      </trkpt>
      <trkpt lat="43.49501" lon="6.61536">
        <ele>61.599998</ele>
        <time>2012-02-10T13:53:11Z</time>
      </trkpt>
      <trkpt lat="43.49502" lon="6.61525">
        <ele>61.700001</ele>
        <time>2012-02-10T13:53:19Z</time>
      </trkpt>
      <trkpt lat="43.49502" lon="6.61524">
        <ele>61.5</ele>
        <time>2012-02-10T13:53:20Z</time>
      </trkpt>
      <trkpt lat="43.49504" lon="6.61501">
        <ele>61.900002</ele>
        <time>2012-02-10T13:53:38Z</time>
      </trkpt>
      <trkpt lat="43.49504" lon="6.6149">
        <ele>61.799999</ele>
        <time>2012-02-10T13:53:46Z</time>
      </trkpt>
      <trkpt lat="43.49504" lon="6.6148">
        <ele>62.099998</ele>
        <time>2012-02-10T13:53:53Z</time>
      </trkpt>
      <trkpt lat="43.49504" lon="6.61469">
        <ele>62.099998</ele>
        <time>2012-02-10T13:53:59Z</time>
      </trkpt>
      <trkpt lat="43.49504" lon="6.61457">
        <ele>62.400002</ele>
        <time>2012-02-10T13:54:07Z</time>
      </trkpt>
      <trkpt lat="43.49507" lon="6.61446">
        <ele>61.700001</ele>
        <time>2012-02-10T13:54:15Z</time>
      </trkpt>
      <trkpt lat="43.49507" lon="6.61434">
        <ele>61.900002</ele>
        <time>2012-02-10T13:54:25Z</time>
      </trkpt>
      <trkpt lat="43.49507" lon="6.61432">
        <ele>61.900002</ele>
        <time>2012-02-10T13:54:26Z</time>
      </trkpt>
      <trkpt lat="43.49508" lon="6.6141">
        <ele>62.299999</ele>
        <time>2012-02-10T13:54:42Z</time>
      </trkpt>
      <trkpt lat="43.4951" lon="6.61399">
        <ele>61.900002</ele>
        <time>2012-02-10T13:54:50Z</time>
      </trkpt>
      <trkpt lat="43.49511" lon="6.61387">
        <ele>62.599998</ele>
        <time>2012-02-10T13:54:58Z</time>
      </trkpt>
      <trkpt lat="43.49511" lon="6.61376">
        <ele>63.099998</ele>
        <time>2012-02-10T13:55:05Z</time>
      </trkpt>
      <trkpt lat="43.49514" lon="6.61365">
        <ele>63.400002</ele>
        <time>2012-02-10T13:55:14Z</time>
      </trkpt>
      <trkpt lat="43.49517" lon="6.61354">
        <ele>62.599998</ele>
        <time>2012-02-10T13:55:23Z</time>
      </trkpt>
      <trkpt lat="43.49519" lon="6.61342">
        <ele>63.200001</ele>
        <time>2012-02-10T13:55:32Z</time>
      </trkpt>
      <trkpt lat="43.49519" lon="6.61341">
        <ele>63</ele>
        <time>2012-02-10T13:55:33Z</time>
      </trkpt>
      <trkpt lat="43.49517" lon="6.61318">
        <ele>63.400002</ele>
        <time>2012-02-10T13:55:50Z</time>
      </trkpt>
      <trkpt lat="43.49518" lon="6.61307">
        <ele>63.299999</ele>
        <time>2012-02-10T13:55:58Z</time>
      </trkpt>
      <trkpt lat="43.49519" lon="6.61294">
        <ele>64</ele>
        <time>2012-02-10T13:56:07Z</time>
      </trkpt>
      <trkpt lat="43.49518" lon="6.61283">
        <ele>63.400002</ele>
        <time>2012-02-10T13:56:16Z</time>
      </trkpt>
      <trkpt lat="43.4952" lon="6.61272">
        <ele>64.099998</ele>
        <time>2012-02-10T13:56:24Z</time>
      </trkpt>
      <trkpt lat="43.49522" lon="6.6126">
        <ele>63.599998</ele>
        <time>2012-02-10T13:56:33Z</time>
      </trkpt>
      <trkpt lat="43.49522" lon="6.61259">
        <ele>63.599998</ele>
        <time>2012-02-10T13:56:34Z</time>
      </trkpt>
      <trkpt lat="43.49523" lon="6.61236">
        <ele>63.900002</ele>
        <time>2012-02-10T13:56:50Z</time>
      </trkpt>
      <trkpt lat="43.49522" lon="6.61224">
        <ele>63.299999</ele>
        <time>2012-02-10T13:56:58Z</time>
      </trkpt>
      <trkpt lat="43.49525" lon="6.61212">
        <ele>63.200001</ele>
        <time>2012-02-10T13:57:06Z</time>
      </trkpt>
      <trkpt lat="43.49525" lon="6.612">
        <ele>63</ele>
        <time>2012-02-10T13:57:15Z</time>
      </trkpt>
      <trkpt lat="43.49525" lon="6.61189">
        <ele>63.200001</ele>
        <time>2012-02-10T13:57:23Z</time>
      </trkpt>
      <trkpt lat="43.49524" lon="6.61176">
        <ele>62.700001</ele>
        <time>2012-02-10T13:57:33Z</time>
      </trkpt>
      <trkpt lat="43.4952" lon="6.61167">
        <ele>63.599998</ele>
        <time>2012-02-10T13:57:37Z</time>
      </trkpt>
      <trkpt lat="43.49519" lon="6.61164">
        <ele>63</ele>
        <time>2012-02-10T13:57:38Z</time>
      </trkpt>
      <trkpt lat="43.49514" lon="6.61148">
        <ele>62.799999</ele>
        <time>2012-02-10T13:57:49Z</time>
      </trkpt>
      <trkpt lat="43.49514" lon="6.61137">
        <ele>63</ele>
        <time>2012-02-10T13:58:00Z</time>
      </trkpt>
      <trkpt lat="43.49518" lon="6.61126">
        <ele>63.299999</ele>
        <time>2012-02-10T13:58:09Z</time>
      </trkpt>
      <trkpt lat="43.49518" lon="6.61114">
        <ele>63.5</ele>
        <time>2012-02-10T13:58:18Z</time>
      </trkpt>
      <trkpt lat="43.49518" lon="6.61102">
        <ele>63.700001</ele>
        <time>2012-02-10T13:58:26Z</time>
      </trkpt>
      <trkpt lat="43.49519" lon="6.61091">
        <ele>63.700001</ele>
        <time>2012-02-10T13:58:34Z</time>
      </trkpt>
      <trkpt lat="43.49518" lon="6.61079">
        <ele>64.699997</ele>
        <time>2012-02-10T13:58:42Z</time>
      </trkpt>
      <trkpt lat="43.49518" lon="6.61078">
        <ele>64.599998</ele>
        <time>2012-02-10T13:58:43Z</time>
      </trkpt>
      <trkpt lat="43.49515" lon="6.61056">
        <ele>65.400002</ele>
        <time>2012-02-10T13:59:00Z</time>
      </trkpt>
      <trkpt lat="43.49515" lon="6.61045">
        <ele>65.199997</ele>
        <time>2012-02-10T13:59:08Z</time>
      </trkpt>
      <trkpt lat="43.49515" lon="6.61033">
        <ele>65.5</ele>
        <time>2012-02-10T13:59:17Z</time>
      </trkpt>
      <trkpt lat="43.49514" lon="6.61021">
        <ele>65.699997</ele>
        <time>2012-02-10T13:59:25Z</time>
      </trkpt>
      <trkpt lat="43.49513" lon="6.61009">
        <ele>66</ele>
        <time>2012-02-10T13:59:35Z</time>
      </trkpt>
      <trkpt lat="43.49512" lon="6.60997">
        <ele>66.5</ele>
        <time>2012-02-10T13:59:45Z</time>
      </trkpt>
      <trkpt lat="43.49513" lon="6.60995">
        <ele>66.800003</ele>
        <time>2012-02-10T13:59:46Z</time>
      </trkpt>
      <trkpt lat="43.4951" lon="6.60973">
        <ele>67.300003</ele>
        <time>2012-02-10T13:59:59Z</time>
      </trkpt>
      <trkpt lat="43.49509" lon="6.60961">
        <ele>66.300003</ele>
        <time>2012-02-10T14:00:08Z</time>
      </trkpt>
      <trkpt lat="43.49507" lon="6.60949">
        <ele>66.5</ele>
        <time>2012-02-10T14:00:17Z</time>
      </trkpt>
      <trkpt lat="43.49508" lon="6.60937">
        <ele>66.800003</ele>
        <time>2012-02-10T14:00:26Z</time>
      </trkpt>
      <trkpt lat="43.49511" lon="6.60926">
        <ele>67.300003</ele>
        <time>2012-02-10T14:00:33Z</time>
      </trkpt>
      <trkpt lat="43.4951" lon="6.60915">
        <ele>67.800003</ele>
        <time>2012-02-10T14:00:41Z</time>
      </trkpt>
      <trkpt lat="43.49507" lon="6.60903">
        <ele>67.599998</ele>
        <time>2012-02-10T14:00:50Z</time>
      </trkpt>
      <trkpt lat="43.49507" lon="6.60902">
        <ele>67.699997</ele>
        <time>2012-02-10T14:00:51Z</time>
      </trkpt>
      <trkpt lat="43.49517" lon="6.60884">
        <ele>68.300003</ele>
        <time>2012-02-10T14:01:15Z</time>
      </trkpt>
      <trkpt lat="43.49524" lon="6.60876">
        <ele>68.300003</ele>
        <time>2012-02-10T14:01:24Z</time>
      </trkpt>
      <trkpt lat="43.49531" lon="6.60871">
        <ele>68.099998</ele>
        <time>2012-02-10T14:01:31Z</time>
      </trkpt>
      <trkpt lat="43.4954" lon="6.60867">
        <ele>68.099998</ele>
        <time>2012-02-10T14:01:40Z</time>
      </trkpt>
      <trkpt lat="43.49546" lon="6.60858">
        <ele>67.699997</ele>
        <time>2012-02-10T14:01:50Z</time>
      </trkpt>
      <trkpt lat="43.49552" lon="6.6085">
        <ele>67.900002</ele>
        <time>2012-02-10T14:02:01Z</time>
      </trkpt>
      <trkpt lat="43.49553" lon="6.6085">
        <ele>67.699997</ele>
        <time>2012-02-10T14:02:02Z</time>
      </trkpt>
      <trkpt lat="43.49565" lon="6.60836">
        <ele>68.099998</ele>
        <time>2012-02-10T14:02:21Z</time>
      </trkpt>
      <trkpt lat="43.49571" lon="6.60827">
        <ele>67.800003</ele>
        <time>2012-02-10T14:02:30Z</time>
      </trkpt>
      <trkpt lat="43.49578" lon="6.6082">
        <ele>68.199997</ele>
        <time>2012-02-10T14:02:41Z</time>
      </trkpt>
      <trkpt lat="43.49585" lon="6.60814">
        <ele>68.300003</ele>
        <time>2012-02-10T14:02:54Z</time>
      </trkpt>
      <trkpt lat="43.49592" lon="6.60807">
        <ele>68.400002</ele>
        <time>2012-02-10T14:03:07Z</time>
      </trkpt>
      <trkpt lat="43.49593" lon="6.60806">
        <ele>68.599998</ele>
        <time>2012-02-10T14:03:08Z</time>
      </trkpt>
      <trkpt lat="43.49605" lon="6.60791">
        <ele>69.099998</ele>
        <time>2012-02-10T14:03:24Z</time>
      </trkpt>
      <trkpt lat="43.4961" lon="6.60782">
        <ele>68.300003</ele>
        <time>2012-02-10T14:03:31Z</time>
      </trkpt>
      <trkpt lat="43.49614" lon="6.60772">
        <ele>68.400002</ele>
        <time>2012-02-10T14:03:41Z</time>
      </trkpt>
      <trkpt lat="43.49619" lon="6.60762">
        <ele>69.400002</ele>
        <time>2012-02-10T14:03:53Z</time>
      </trkpt>
      <trkpt lat="43.49624" lon="6.60752">
        <ele>69.5</ele>
        <time>2012-02-10T14:04:08Z</time>
      </trkpt>
      <trkpt lat="43.49624" lon="6.60751">
        <ele>69.599998</ele>
        <time>2012-02-10T14:04:09Z</time>
      </trkpt>
      <trkpt lat="43.49635" lon="6.60735">
        <ele>68.699997</ele>
        <time>2012-02-10T14:04:26Z</time>
      </trkpt>
      <trkpt lat="43.49641" lon="6.60726">
        <ele>68.900002</ele>
        <time>2012-02-10T14:04:38Z</time>
      </trkpt>
      <trkpt lat="43.49646" lon="6.60716">
        <ele>68.699997</ele>
        <time>2012-02-10T14:04:51Z</time>
      </trkpt>
      <trkpt lat="43.4965" lon="6.60705">
        <ele>68.900002</ele>
        <time>2012-02-10T14:05:08Z</time>
      </trkpt>
      <trkpt lat="43.49656" lon="6.60697">
        <ele>69.699997</ele>
        <time>2012-02-10T14:05:17Z</time>
      </trkpt>
      <trkpt lat="43.49657" lon="6.60696">
        <ele>69.699997</ele>
        <time>2012-02-10T14:05:18Z</time>
      </trkpt>
      <trkpt lat="43.49669" lon="6.60681">
        <ele>71.400002</ele>
        <time>2012-02-10T14:05:41Z</time>
      </trkpt>
      <trkpt lat="43.49676" lon="6.60676">
        <ele>71.199997</ele>
        <time>2012-02-10T14:05:55Z</time>
      </trkpt>
      <trkpt lat="43.49685" lon="6.60674">
        <ele>70.300003</ele>
        <time>2012-02-10T14:06:05Z</time>
      </trkpt>
      <trkpt lat="43.49693" lon="6.60672">
        <ele>69.900002</ele>
        <time>2012-02-10T14:06:13Z</time>
      </trkpt>
      <trkpt lat="43.49702" lon="6.60668">
        <ele>68.900002</ele>
        <time>2012-02-10T14:06:21Z</time>
      </trkpt>
      <trkpt lat="43.49703" lon="6.60668">
        <ele>69.099998</ele>
        <time>2012-02-10T14:06:22Z</time>
      </trkpt>
      <trkpt lat="43.49718" lon="6.60662">
        <ele>70.900002</ele>
        <time>2012-02-10T14:06:45Z</time>
      </trkpt>
      <trkpt lat="43.49727" lon="6.60659">
        <ele>70.900002</ele>
        <time>2012-02-10T14:06:55Z</time>
      </trkpt>
      <trkpt lat="43.49735" lon="6.60655">
        <ele>71.400002</ele>
        <time>2012-02-10T14:07:04Z</time>
      </trkpt>
      <trkpt lat="43.49743" lon="6.60651">
        <ele>70.800003</ele>
        <time>2012-02-10T14:07:14Z</time>
      </trkpt>
      <trkpt lat="43.49751" lon="6.60648">
        <ele>70.099998</ele>
        <time>2012-02-10T14:07:24Z</time>
      </trkpt>
      <trkpt lat="43.49752" lon="6.60648">
        <ele>70.099998</ele>
        <time>2012-02-10T14:07:25Z</time>
      </trkpt>
      <trkpt lat="43.49768" lon="6.60641">
        <ele>70</ele>
        <time>2012-02-10T14:07:44Z</time>
      </trkpt>
      <trkpt lat="43.49776" lon="6.60641">
        <ele>70</ele>
        <time>2012-02-10T14:07:56Z</time>
      </trkpt>
      <trkpt lat="43.49785" lon="6.6064">
        <ele>69.400002</ele>
        <time>2012-02-10T14:08:06Z</time>
      </trkpt>
      <trkpt lat="43.49794" lon="6.6064">
        <ele>68.900002</ele>
        <time>2012-02-10T14:08:16Z</time>
      </trkpt>
      <trkpt lat="43.49802" lon="6.60639">
        <ele>69.400002</ele>
        <time>2012-02-10T14:08:26Z</time>
      </trkpt>
      <trkpt lat="43.49803" lon="6.6064">
        <ele>69.300003</ele>
        <time>2012-02-10T14:08:27Z</time>
      </trkpt>
      <trkpt lat="43.49819" lon="6.60637">
        <ele>69.199997</ele>
        <time>2012-02-10T14:08:47Z</time>
      </trkpt>
      <trkpt lat="43.49827" lon="6.60632">
        <ele>69.199997</ele>
        <time>2012-02-10T14:08:56Z</time>
      </trkpt>
      <trkpt lat="43.49836" lon="6.60627">
        <ele>69.300003</ele>
        <time>2012-02-10T14:09:05Z</time>
      </trkpt>
      <trkpt lat="43.49843" lon="6.60623">
        <ele>70.400002</ele>
        <time>2012-02-10T14:09:14Z</time>
      </trkpt>
      <trkpt lat="43.49852" lon="6.60619">
        <ele>71</ele>
        <time>2012-02-10T14:09:27Z</time>
      </trkpt>
      <trkpt lat="43.49853" lon="6.6062">
        <ele>70.800003</ele>
        <time>2012-02-10T14:09:28Z</time>
      </trkpt>
      <trkpt lat="43.49869" lon="6.60617">
        <ele>70.5</ele>
        <time>2012-02-10T14:09:48Z</time>
      </trkpt>
      <trkpt lat="43.49878" lon="6.60616">
        <ele>70.599998</ele>
        <time>2012-02-10T14:10:02Z</time>
      </trkpt>
      <trkpt lat="43.49885" lon="6.60609">
        <ele>70.5</ele>
        <time>2012-02-10T14:10:11Z</time>
      </trkpt>
      <trkpt lat="43.49893" lon="6.60611">
        <ele>69.699997</ele>
        <time>2012-02-10T14:10:28Z</time>
      </trkpt>
      <trkpt lat="43.49894" lon="6.60611">
        <ele>69.599998</ele>
        <time>2012-02-10T14:10:29Z</time>
      </trkpt>
      <trkpt lat="43.49909" lon="6.60603">
        <ele>68.199997</ele>
        <time>2012-02-10T14:10:47Z</time>
      </trkpt>
      <trkpt lat="43.49917" lon="6.60599">
        <ele>68.300003</ele>
        <time>2012-02-10T14:10:57Z</time>
      </trkpt>
      <trkpt lat="43.49925" lon="6.60594">
        <ele>68</ele>
        <time>2012-02-10T14:11:05Z</time>
      </trkpt>
      <trkpt lat="43.49933" lon="6.60591">
        <ele>69.199997</ele>
        <time>2012-02-10T14:11:16Z</time>
      </trkpt>
      <trkpt lat="43.49941" lon="6.60586">
        <ele>68.699997</ele>
        <time>2012-02-10T14:11:27Z</time>
      </trkpt>
      <trkpt lat="43.49949" lon="6.60582">
        <ele>67.800003</ele>
        <time>2012-02-10T14:11:38Z</time>
      </trkpt>
      <trkpt lat="43.4995" lon="6.60581">
        <ele>67.800003</ele>
        <time>2012-02-10T14:11:39Z</time>
      </trkpt>
      <trkpt lat="43.49965" lon="6.60572">
        <ele>68</ele>
        <time>2012-02-10T14:11:56Z</time>
      </trkpt>
      <trkpt lat="43.49973" lon="6.60568">
        <ele>67.900002</ele>
        <time>2012-02-10T14:12:07Z</time>
      </trkpt>
      <trkpt lat="43.49981" lon="6.60563">
        <ele>68.300003</ele>
        <time>2012-02-10T14:12:23Z</time>
      </trkpt>
      <trkpt lat="43.49989" lon="6.60558">
        <ele>68.800003</ele>
        <time>2012-02-10T14:12:46Z</time>
      </trkpt>
      <trkpt lat="43.49989" lon="6.60557">
        <ele>69.099998</ele>
        <time>2012-02-10T14:12:47Z</time>
      </trkpt>
      <trkpt lat="43.50005" lon="6.6055">
        <ele>68.900002</ele>
        <time>2012-02-10T14:13:09Z</time>
      </trkpt>
      <trkpt lat="43.50013" lon="6.60545">
        <ele>69.900002</ele>
        <time>2012-02-10T14:13:18Z</time>
      </trkpt>
      <trkpt lat="43.50021" lon="6.60542">
        <ele>69.599998</ele>
        <time>2012-02-10T14:13:27Z</time>
      </trkpt>
      <trkpt lat="43.50029" lon="6.60538">
        <ele>69.400002</ele>
        <time>2012-02-10T14:13:39Z</time>
      </trkpt>
      <trkpt lat="43.50037" lon="6.60534">
        <ele>69.599998</ele>
        <time>2012-02-10T14:13:49Z</time>
      </trkpt>
      <trkpt lat="43.50038" lon="6.60533">
        <ele>69.800003</ele>
        <time>2012-02-10T14:13:50Z</time>
      </trkpt>
      <trkpt lat="43.50052" lon="6.60521">
        <ele>69.900002</ele>
        <time>2012-02-10T14:14:09Z</time>
      </trkpt>
      <trkpt lat="43.50058" lon="6.60514">
        <ele>69.599998</ele>
        <time>2012-02-10T14:14:19Z</time>
      </trkpt>
      <trkpt lat="43.50064" lon="6.60504">
        <ele>69.599998</ele>
        <time>2012-02-10T14:14:29Z</time>
      </trkpt>
      <trkpt lat="43.50068" lon="6.60494">
        <ele>70.599998</ele>
        <time>2012-02-10T14:14:40Z</time>
      </trkpt>
      <trkpt lat="43.50072" lon="6.60483">
        <ele>69.599998</ele>
        <time>2012-02-10T14:14:50Z</time>
      </trkpt>
      <trkpt lat="43.50073" lon="6.60482">
        <ele>69.699997</ele>
        <time>2012-02-10T14:14:51Z</time>
      </trkpt>
      <trkpt lat="43.50085" lon="6.60468">
        <ele>69.699997</ele>
        <time>2012-02-10T14:15:09Z</time>
      </trkpt>
      <trkpt lat="43.5009" lon="6.60458">
        <ele>69.900002</ele>
        <time>2012-02-10T14:15:20Z</time>
      </trkpt>
      <trkpt lat="43.50091" lon="6.60446">
        <ele>70</ele>
        <time>2012-02-10T14:15:33Z</time>
      </trkpt>
      <trkpt lat="43.501" lon="6.60446">
        <ele>69.900002</ele>
        <time>2012-02-10T14:16:01Z</time>
      </trkpt>
      <trkpt lat="43.50101" lon="6.60447">
        <ele>70</ele>
        <time>2012-02-10T14:16:02Z</time>
      </trkpt>
      <trkpt lat="43.50116" lon="6.60439">
        <ele>70</ele>
        <time>2012-02-10T14:16:19Z</time>
      </trkpt>
      <trkpt lat="43.50124" lon="6.60433">
        <ele>70.099998</ele>
        <time>2012-02-10T14:16:27Z</time>
      </trkpt>
      <trkpt lat="43.50131" lon="6.60426">
        <ele>69.900002</ele>
        <time>2012-02-10T14:16:38Z</time>
      </trkpt>
      <trkpt lat="43.50138" lon="6.6042">
        <ele>70.400002</ele>
        <time>2012-02-10T14:16:48Z</time>
      </trkpt>
      <trkpt lat="43.50146" lon="6.60416">
        <ele>70.099998</ele>
        <time>2012-02-10T14:16:56Z</time>
      </trkpt>
      <trkpt lat="43.50155" lon="6.60412">
        <ele>69.5</ele>
        <time>2012-02-10T14:17:06Z</time>
      </trkpt>
      <trkpt lat="43.50156" lon="6.60412">
        <ele>69.599998</ele>
        <time>2012-02-10T14:17:07Z</time>
      </trkpt>
      <trkpt lat="43.50171" lon="6.60406">
        <ele>69.099998</ele>
        <time>2012-02-10T14:17:22Z</time>
      </trkpt>
      <trkpt lat="43.50179" lon="6.60401">
        <ele>69.099998</ele>
        <time>2012-02-10T14:17:30Z</time>
      </trkpt>
      <trkpt lat="43.50187" lon="6.60396">
        <ele>69.400002</ele>
        <time>2012-02-10T14:17:40Z</time>
      </trkpt>
      <trkpt lat="43.50192" lon="6.60406">
        <ele>69.400002</ele>
        <time>2012-02-10T14:17:55Z</time>
      </trkpt>
      <trkpt lat="43.50192" lon="6.60418">
        <ele>69.900002</ele>
        <time>2012-02-10T14:18:48Z</time>
      </trkpt>
      <trkpt lat="43.50192" lon="6.60418">
        <ele>69.900002</ele>
        <time>2012-02-10T14:18:49Z</time>
      </trkpt>
      <trkpt lat="43.5019" lon="6.60406">
        <ele>69.300003</ele>
        <time>2012-02-10T14:20:29Z</time>
      </trkpt>
      <trkpt lat="43.50199" lon="6.60393">
        <ele>69.599998</ele>
        <time>2012-02-10T14:21:19Z</time>
      </trkpt>
      <trkpt lat="43.5019" lon="6.6039">
        <ele>69.599998</ele>
        <time>2012-02-10T14:22:46Z</time>
      </trkpt>
      <trkpt lat="43.5019" lon="6.60391">
        <ele>69.599998</ele>
        <time>2012-02-10T14:22:47Z</time>
      </trkpt>
      <trkpt lat="43.50175" lon="6.604">
        <ele>69.300003</ele>
        <time>2012-02-10T14:23:07Z</time>
      </trkpt>
      <trkpt lat="43.50168" lon="6.60407">
        <ele>69.099998</ele>
        <time>2012-02-10T14:23:18Z</time>
      </trkpt>
      <trkpt lat="43.5016" lon="6.60409">
        <ele>69.699997</ele>
        <time>2012-02-10T14:23:27Z</time>
      </trkpt>
      <trkpt lat="43.50151" lon="6.60411">
        <ele>69.5</ele>
        <time>2012-02-10T14:23:35Z</time>
      </trkpt>
      <trkpt lat="43.50143" lon="6.60414">
        <ele>69.400002</ele>
        <time>2012-02-10T14:23:45Z</time>
      </trkpt>
      <trkpt lat="43.50134" lon="6.60417">
        <ele>69.699997</ele>
        <time>2012-02-10T14:23:55Z</time>
      </trkpt>
      <trkpt lat="43.50134" lon="6.60417">
        <ele>69.699997</ele>
        <time>2012-02-10T14:23:56Z</time>
      </trkpt>
      <trkpt lat="43.50118" lon="6.60421">
        <ele>69.900002</ele>
        <time>2012-02-10T14:24:15Z</time>
      </trkpt>
      <trkpt lat="43.5011" lon="6.60426">
        <ele>69.900002</ele>
        <time>2012-02-10T14:24:25Z</time>
      </trkpt>
      <trkpt lat="43.50102" lon="6.60431">
        <ele>70.400002</ele>
        <time>2012-02-10T14:24:33Z</time>
      </trkpt>
      <trkpt lat="43.50095" lon="6.60436">
        <ele>69.599998</ele>
        <time>2012-02-10T14:24:42Z</time>
      </trkpt>
      <trkpt lat="43.50088" lon="6.60428">
        <ele>70</ele>
        <time>2012-02-10T14:24:55Z</time>
      </trkpt>
      <trkpt lat="43.50087" lon="6.60417">
        <ele>70.199997</ele>
        <time>2012-02-10T14:25:04Z</time>
      </trkpt>
      <trkpt lat="43.50087" lon="6.60416">
        <ele>70.300003</ele>
        <time>2012-02-10T14:25:05Z</time>
      </trkpt>
      <trkpt lat="43.50082" lon="6.60394">
        <ele>69.599998</ele>
        <time>2012-02-10T14:25:23Z</time>
      </trkpt>
      <trkpt lat="43.50078" lon="6.60383">
        <ele>69.599998</ele>
        <time>2012-02-10T14:25:34Z</time>
      </trkpt>
      <trkpt lat="43.50075" lon="6.60373">
        <ele>69.300003</ele>
        <time>2012-02-10T14:25:51Z</time>
      </trkpt>
      <trkpt lat="43.5007" lon="6.60363">
        <ele>69.199997</ele>
        <time>2012-02-10T14:26:02Z</time>
      </trkpt>
      <trkpt lat="43.50066" lon="6.60353">
        <ele>68.699997</ele>
        <time>2012-02-10T14:26:15Z</time>
      </trkpt>
      <trkpt lat="43.50065" lon="6.60352">
        <ele>68.699997</ele>
        <time>2012-02-10T14:26:16Z</time>
      </trkpt>
      <trkpt lat="43.50058" lon="6.60332">
        <ele>67.199997</ele>
        <time>2012-02-10T14:26:39Z</time>
      </trkpt>
      <trkpt lat="43.50054" lon="6.60321">
        <ele>66</ele>
        <time>2012-02-10T14:26:51Z</time>
      </trkpt>
      <trkpt lat="43.50053" lon="6.60309">
        <ele>65</ele>
        <time>2012-02-10T14:27:03Z</time>
      </trkpt>
      <trkpt lat="43.50057" lon="6.60299">
        <ele>64</ele>
        <time>2012-02-10T14:27:14Z</time>
      </trkpt>
      <trkpt lat="43.50058" lon="6.60287">
        <ele>63</ele>
        <time>2012-02-10T14:27:26Z</time>
      </trkpt>
      <trkpt lat="43.50058" lon="6.60286">
        <ele>62.900002</ele>
        <time>2012-02-10T14:27:27Z</time>
      </trkpt>
      <trkpt lat="43.50062" lon="6.60265">
        <ele>61.5</ele>
        <time>2012-02-10T14:27:51Z</time>
      </trkpt>
      <trkpt lat="43.5006" lon="6.60254">
        <ele>60</ele>
        <time>2012-02-10T14:28:06Z</time>
      </trkpt>
      <trkpt lat="43.50057" lon="6.60243">
        <ele>59</ele>
        <time>2012-02-10T14:28:19Z</time>
      </trkpt>
      <trkpt lat="43.50054" lon="6.60232">
        <ele>57</ele>
        <time>2012-02-10T14:28:31Z</time>
      </trkpt>
      <trkpt lat="43.50053" lon="6.60232">
        <ele>56.900002</ele>
        <time>2012-02-10T14:28:32Z</time>
      </trkpt>
      <trkpt lat="43.50055" lon="6.60212">
        <ele>54.900002</ele>
        <time>2012-02-10T14:28:59Z</time>
      </trkpt>
      <trkpt lat="43.50058" lon="6.602">
        <ele>54.200001</ele>
        <time>2012-02-10T14:29:12Z</time>
      </trkpt>
      <trkpt lat="43.5006" lon="6.60189">
        <ele>53</ele>
        <time>2012-02-10T14:29:27Z</time>
      </trkpt>
      <trkpt lat="43.50062" lon="6.60178">
        <ele>52.799999</ele>
        <time>2012-02-10T14:29:39Z</time>
      </trkpt>
      <trkpt lat="43.50062" lon="6.60177">
        <ele>52.900002</ele>
        <time>2012-02-10T14:29:40Z</time>
      </trkpt>
      <trkpt lat="43.50058" lon="6.6017">
        <ele>51.700001</ele>
        <time>2012-02-10T14:30:31Z</time>
      </trkpt>
      <trkpt lat="43.5005" lon="6.60168">
        <ele>52.299999</ele>
        <time>2012-02-10T14:30:40Z</time>
      </trkpt>
      <trkpt lat="43.50049" lon="6.60168">
        <ele>51.900002</ele>
        <time>2012-02-10T14:30:41Z</time>
      </trkpt>
      <trkpt lat="43.50034" lon="6.6016">
        <ele>51.599998</ele>
        <time>2012-02-10T14:31:01Z</time>
      </trkpt>
      <trkpt lat="43.50026" lon="6.60156">
        <ele>52.700001</ele>
        <time>2012-02-10T14:31:16Z</time>
      </trkpt>
      <trkpt lat="43.50033" lon="6.60163">
        <ele>52.099998</ele>
        <time>2012-02-10T14:33:32Z</time>
      </trkpt>
      <trkpt lat="43.50034" lon="6.60163">
        <ele>52</ele>
        <time>2012-02-10T14:33:33Z</time>
      </trkpt>
      <trkpt lat="43.5005" lon="6.60169">
        <ele>52</ele>
        <time>2012-02-10T14:33:59Z</time>
      </trkpt>
      <trkpt lat="43.50059" lon="6.60174">
        <ele>52.400002</ele>
        <time>2012-02-10T14:34:17Z</time>
      </trkpt>
      <trkpt lat="43.50066" lon="6.60167">
        <ele>52.599998</ele>
        <time>2012-02-10T14:34:35Z</time>
      </trkpt>
      <trkpt lat="43.50066" lon="6.60166">
        <ele>52.799999</ele>
        <time>2012-02-10T14:34:36Z</time>
      </trkpt>
      <trkpt lat="43.50074" lon="6.60145">
        <ele>52.5</ele>
        <time>2012-02-10T14:35:11Z</time>
      </trkpt>
      <trkpt lat="43.50077" lon="6.60133">
        <ele>52.5</ele>
        <time>2012-02-10T14:35:25Z</time>
      </trkpt>
      <trkpt lat="43.5008" lon="6.60122">
        <ele>52.799999</ele>
        <time>2012-02-10T14:35:35Z</time>
      </trkpt>
      <trkpt lat="43.50083" lon="6.60111">
        <ele>53.400002</ele>
        <time>2012-02-10T14:35:45Z</time>
      </trkpt>
      <trkpt lat="43.50084" lon="6.60111">
        <ele>53.200001</ele>
        <time>2012-02-10T14:35:46Z</time>
      </trkpt>
      <trkpt lat="43.50088" lon="6.60088">
        <ele>54.099998</ele>
        <time>2012-02-10T14:36:07Z</time>
      </trkpt>
      <trkpt lat="43.50091" lon="6.60077">
        <ele>54</ele>
        <time>2012-02-10T14:36:18Z</time>
      </trkpt>
      <trkpt lat="43.50093" lon="6.60065">
        <ele>54.599998</ele>
        <time>2012-02-10T14:36:40Z</time>
      </trkpt>
      <trkpt lat="43.50096" lon="6.60054">
        <ele>54.400002</ele>
        <time>2012-02-10T14:36:51Z</time>
      </trkpt>
      <trkpt lat="43.50096" lon="6.60053">
        <ele>54.299999</ele>
        <time>2012-02-10T14:36:52Z</time>
      </trkpt>
      <trkpt lat="43.50101" lon="6.60031">
        <ele>54.799999</ele>
        <time>2012-02-10T14:37:13Z</time>
      </trkpt>
      <trkpt lat="43.50102" lon="6.6002">
        <ele>55.200001</ele>
        <time>2012-02-10T14:37:26Z</time>
      </trkpt>
      <trkpt lat="43.50105" lon="6.60009">
        <ele>54.099998</ele>
        <time>2012-02-10T14:37:36Z</time>
      </trkpt>
      <trkpt lat="43.50107" lon="6.59997">
        <ele>54.599998</ele>
        <time>2012-02-10T14:37:46Z</time>
      </trkpt>
      <trkpt lat="43.50112" lon="6.59987">
        <ele>54.5</ele>
        <time>2012-02-10T14:37:56Z</time>
      </trkpt>
      <trkpt lat="43.50112" lon="6.59985">
        <ele>54.299999</ele>
        <time>2012-02-10T14:37:57Z</time>
      </trkpt>
      <trkpt lat="43.50116" lon="6.59964">
        <ele>54.799999</ele>
        <time>2012-02-10T14:38:17Z</time>
      </trkpt>
      <trkpt lat="43.50116" lon="6.59952">
        <ele>54.400002</ele>
        <time>2012-02-10T14:38:27Z</time>
      </trkpt>
      <trkpt lat="43.50119" lon="6.5994">
        <ele>54.200001</ele>
        <time>2012-02-10T14:38:38Z</time>
      </trkpt>
      <trkpt lat="43.50123" lon="6.5993">
        <ele>54.099998</ele>
        <time>2012-02-10T14:38:47Z</time>
      </trkpt>
      <trkpt lat="43.5013" lon="6.59922">
        <ele>53.299999</ele>
        <time>2012-02-10T14:38:56Z</time>
      </trkpt>
      <trkpt lat="43.50138" lon="6.5992">
        <ele>55.099998</ele>
        <time>2012-02-10T14:39:07Z</time>
      </trkpt>
      <trkpt lat="43.50138" lon="6.5992">
        <ele>55.299999</ele>
        <time>2012-02-10T14:39:08Z</time>
      </trkpt>
      <trkpt lat="43.50142" lon="6.59898">
        <ele>53.200001</ele>
        <time>2012-02-10T14:39:25Z</time>
      </trkpt>
      <trkpt lat="43.50141" lon="6.59887">
        <ele>53.5</ele>
        <time>2012-02-10T14:39:40Z</time>
      </trkpt>
      <trkpt lat="43.50147" lon="6.59878">
        <ele>54.299999</ele>
        <time>2012-02-10T14:39:50Z</time>
      </trkpt>
      <trkpt lat="43.50154" lon="6.59871">
        <ele>54.5</ele>
        <time>2012-02-10T14:40:00Z</time>
      </trkpt>
      <trkpt lat="43.5016" lon="6.59863">
        <ele>55.200001</ele>
        <time>2012-02-10T14:40:14Z</time>
      </trkpt>
      <trkpt lat="43.5016" lon="6.59862">
        <ele>55.200001</ele>
        <time>2012-02-10T14:40:15Z</time>
      </trkpt>
      <trkpt lat="43.50163" lon="6.59839">
        <ele>57.200001</ele>
        <time>2012-02-10T14:40:36Z</time>
      </trkpt>
      <trkpt lat="43.50165" lon="6.59827">
        <ele>58</ele>
        <time>2012-02-10T14:40:46Z</time>
      </trkpt>
      <trkpt lat="43.50168" lon="6.59817">
        <ele>57.400002</ele>
        <time>2012-02-10T14:41:04Z</time>
      </trkpt>
      <trkpt lat="43.5017" lon="6.59804">
        <ele>58.900002</ele>
        <time>2012-02-10T14:41:23Z</time>
      </trkpt>
      <trkpt lat="43.5017" lon="6.59804">
        <ele>59</ele>
        <time>2012-02-10T14:41:24Z</time>
      </trkpt>
      <trkpt lat="43.50163" lon="6.59782">
        <ele>58.700001</ele>
        <time>2012-02-10T14:41:46Z</time>
      </trkpt>
      <trkpt lat="43.50161" lon="6.59771">
        <ele>58.700001</ele>
        <time>2012-02-10T14:41:55Z</time>
      </trkpt>
      <trkpt lat="43.50158" lon="6.59761">
        <ele>58.900002</ele>
        <time>2012-02-10T14:42:04Z</time>
      </trkpt>
      <trkpt lat="43.50153" lon="6.59751">
        <ele>58.799999</ele>
        <time>2012-02-10T14:42:13Z</time>
      </trkpt>
      <trkpt lat="43.50151" lon="6.59739">
        <ele>58.5</ele>
        <time>2012-02-10T14:42:22Z</time>
      </trkpt>
      <trkpt lat="43.50151" lon="6.59727">
        <ele>58.599998</ele>
        <time>2012-02-10T14:42:40Z</time>
      </trkpt>
      <trkpt lat="43.50151" lon="6.59726">
        <ele>58.400002</ele>
        <time>2012-02-10T14:42:41Z</time>
      </trkpt>
      <trkpt lat="43.50159" lon="6.59707">
        <ele>57.900002</ele>
        <time>2012-02-10T14:43:13Z</time>
      </trkpt>
      <trkpt lat="43.50158" lon="6.59695">
        <ele>58.299999</ele>
        <time>2012-02-10T14:43:22Z</time>
      </trkpt>
      <trkpt lat="43.50158" lon="6.59683">
        <ele>58.400002</ele>
        <time>2012-02-10T14:43:33Z</time>
      </trkpt>
      <trkpt lat="43.50155" lon="6.59672">
        <ele>58.200001</ele>
        <time>2012-02-10T14:43:43Z</time>
      </trkpt>
      <trkpt lat="43.50155" lon="6.59671">
        <ele>58.299999</ele>
        <time>2012-02-10T14:43:44Z</time>
      </trkpt>
      <trkpt lat="43.50168" lon="6.59659">
        <ele>58.400002</ele>
        <time>2012-02-10T14:44:04Z</time>
      </trkpt>
      <trkpt lat="43.50177" lon="6.59658">
        <ele>57.200001</ele>
        <time>2012-02-10T14:44:13Z</time>
      </trkpt>
      <trkpt lat="43.50185" lon="6.59653">
        <ele>58</ele>
        <time>2012-02-10T14:44:24Z</time>
      </trkpt>
      <trkpt lat="43.50193" lon="6.59647">
        <ele>57.799999</ele>
        <time>2012-02-10T14:44:33Z</time>
      </trkpt>
      <trkpt lat="43.502" lon="6.59642">
        <ele>57.099998</ele>
        <time>2012-02-10T14:44:45Z</time>
      </trkpt>
      <trkpt lat="43.50201" lon="6.59641">
        <ele>56.900002</ele>
        <time>2012-02-10T14:44:46Z</time>
      </trkpt>
      <trkpt lat="43.50215" lon="6.59628">
        <ele>56.099998</ele>
        <time>2012-02-10T14:45:07Z</time>
      </trkpt>
      <trkpt lat="43.50222" lon="6.59621">
        <ele>56</ele>
        <time>2012-02-10T14:45:20Z</time>
      </trkpt>
      <trkpt lat="43.50231" lon="6.59618">
        <ele>55.200001</ele>
        <time>2012-02-10T14:45:30Z</time>
      </trkpt>
      <trkpt lat="43.50239" lon="6.59613">
        <ele>54.799999</ele>
        <time>2012-02-10T14:45:40Z</time>
      </trkpt>
      <trkpt lat="43.50247" lon="6.59609">
        <ele>54.200001</ele>
        <time>2012-02-10T14:45:48Z</time>
      </trkpt>
      <trkpt lat="43.50248" lon="6.59609">
        <ele>54.099998</ele>
        <time>2012-02-10T14:45:49Z</time>
      </trkpt>
      <trkpt lat="43.50263" lon="6.59602">
        <ele>53</ele>
        <time>2012-02-10T14:46:05Z</time>
      </trkpt>
      <trkpt lat="43.50271" lon="6.59597">
        <ele>52.5</ele>
        <time>2012-02-10T14:46:14Z</time>
      </trkpt>
      <trkpt lat="43.50278" lon="6.59592">
        <ele>52.200001</ele>
        <time>2012-02-10T14:46:25Z</time>
      </trkpt>
      <trkpt lat="43.50286" lon="6.59587">
        <ele>52.200001</ele>
        <time>2012-02-10T14:46:35Z</time>
      </trkpt>
      <trkpt lat="43.50294" lon="6.59582">
        <ele>52</ele>
        <time>2012-02-10T14:46:46Z</time>
      </trkpt>
      <trkpt lat="43.50301" lon="6.59578">
        <ele>51.5</ele>
        <time>2012-02-10T14:46:55Z</time>
      </trkpt>
      <trkpt lat="43.50302" lon="6.59577">
        <ele>51.400002</ele>
        <time>2012-02-10T14:46:56Z</time>
      </trkpt>
      <trkpt lat="43.50316" lon="6.59567">
        <ele>51.200001</ele>
        <time>2012-02-10T14:47:23Z</time>
      </trkpt>
      <trkpt lat="43.50324" lon="6.59563">
        <ele>51.200001</ele>
        <time>2012-02-10T14:47:33Z</time>
      </trkpt>
      <trkpt lat="43.50332" lon="6.59558">
        <ele>51.200001</ele>
        <time>2012-02-10T14:47:43Z</time>
      </trkpt>
      <trkpt lat="43.50339" lon="6.59553">
        <ele>51.5</ele>
        <time>2012-02-10T14:47:52Z</time>
      </trkpt>
      <trkpt lat="43.50347" lon="6.59548">
        <ele>51.900002</ele>
        <time>2012-02-10T14:48:01Z</time>
      </trkpt>
      <trkpt lat="43.50348" lon="6.59548">
        <ele>51.799999</ele>
        <time>2012-02-10T14:48:02Z</time>
      </trkpt>
      <trkpt lat="43.50363" lon="6.59539">
        <ele>52.599998</ele>
        <time>2012-02-10T14:48:20Z</time>
      </trkpt>
      <trkpt lat="43.5037" lon="6.59534">
        <ele>52.5</ele>
        <time>2012-02-10T14:48:30Z</time>
      </trkpt>
      <trkpt lat="43.50377" lon="6.59528">
        <ele>52.900002</ele>
        <time>2012-02-10T14:48:40Z</time>
      </trkpt>
      <trkpt lat="43.50384" lon="6.59522">
        <ele>53.200001</ele>
        <time>2012-02-10T14:48:49Z</time>
      </trkpt>
      <trkpt lat="43.50391" lon="6.59516">
        <ele>52.900002</ele>
        <time>2012-02-10T14:48:58Z</time>
      </trkpt>
      <trkpt lat="43.50398" lon="6.59509">
        <ele>53.599998</ele>
        <time>2012-02-10T14:49:07Z</time>
      </trkpt>
      <trkpt lat="43.50399" lon="6.59508">
        <ele>53.700001</ele>
        <time>2012-02-10T14:49:08Z</time>
      </trkpt>
      <trkpt lat="43.50414" lon="6.59499">
        <ele>54</ele>
        <time>2012-02-10T14:49:26Z</time>
      </trkpt>
      <trkpt lat="43.50422" lon="6.59496">
        <ele>55</ele>
        <time>2012-02-10T14:49:37Z</time>
      </trkpt>
      <trkpt lat="43.5043" lon="6.59489">
        <ele>55</ele>
        <time>2012-02-10T14:49:49Z</time>
      </trkpt>
      <trkpt lat="43.50437" lon="6.59484">
        <ele>54.400002</ele>
        <time>2012-02-10T14:50:00Z</time>
      </trkpt>
      <trkpt lat="43.50444" lon="6.59478">
        <ele>53.799999</ele>
        <time>2012-02-10T14:50:12Z</time>
      </trkpt>
      <trkpt lat="43.50445" lon="6.59478">
        <ele>53.900002</ele>
        <time>2012-02-10T14:50:13Z</time>
      </trkpt>
      <trkpt lat="43.50447" lon="6.59482">
        <ele>55.200001</ele>
        <time>2012-02-10T14:50:42Z</time>
      </trkpt>
      <trkpt lat="43.50443" lon="6.59492">
        <ele>55.299999</ele>
        <time>2012-02-10T14:50:49Z</time>
      </trkpt>
      <trkpt lat="43.50438" lon="6.59501">
        <ele>55.700001</ele>
        <time>2012-02-10T14:50:58Z</time>
      </trkpt>
      <trkpt lat="43.50431" lon="6.59509">
        <ele>55.700001</ele>
        <time>2012-02-10T14:51:07Z</time>
      </trkpt>
      <trkpt lat="43.50426" lon="6.59518">
        <ele>56.099998</ele>
        <time>2012-02-10T14:51:16Z</time>
      </trkpt>
      <trkpt lat="43.50426" lon="6.59519">
        <ele>55.900002</ele>
        <time>2012-02-10T14:51:17Z</time>
      </trkpt>
      <trkpt lat="43.50425" lon="6.59541">
        <ele>56.599998</ele>
        <time>2012-02-10T14:51:32Z</time>
      </trkpt>
      <trkpt lat="43.50429" lon="6.59551">
        <ele>56.799999</ele>
        <time>2012-02-10T14:51:42Z</time>
      </trkpt>
      <trkpt lat="43.50435" lon="6.5956">
        <ele>57.200001</ele>
        <time>2012-02-10T14:51:51Z</time>
      </trkpt>
      <trkpt lat="43.50441" lon="6.59569">
        <ele>57.799999</ele>
        <time>2012-02-10T14:52:01Z</time>
      </trkpt>
      <trkpt lat="43.50447" lon="6.59577">
        <ele>59.099998</ele>
        <time>2012-02-10T14:52:11Z</time>
      </trkpt>
      <trkpt lat="43.50454" lon="6.59585">
        <ele>59.299999</ele>
        <time>2012-02-10T14:52:21Z</time>
      </trkpt>
      <trkpt lat="43.50454" lon="6.59585">
        <ele>59.299999</ele>
        <time>2012-02-10T14:52:22Z</time>
      </trkpt>
      <trkpt lat="43.50469" lon="6.59594">
        <ele>59.599998</ele>
        <time>2012-02-10T14:52:39Z</time>
      </trkpt>
      <trkpt lat="43.50476" lon="6.596">
        <ele>60.400002</ele>
        <time>2012-02-10T14:52:49Z</time>
      </trkpt>
      <trkpt lat="43.50482" lon="6.59608">
        <ele>61.400002</ele>
        <time>2012-02-10T14:52:58Z</time>
      </trkpt>
      <trkpt lat="43.50488" lon="6.59615">
        <ele>61.099998</ele>
        <time>2012-02-10T14:53:07Z</time>
      </trkpt>
      <trkpt lat="43.50493" lon="6.59625">
        <ele>60.299999</ele>
        <time>2012-02-10T14:53:17Z</time>
      </trkpt>
      <trkpt lat="43.50498" lon="6.59635">
        <ele>62.299999</ele>
        <time>2012-02-10T14:53:27Z</time>
      </trkpt>
      <trkpt lat="43.50498" lon="6.59636">
        <ele>62.099998</ele>
        <time>2012-02-10T14:53:28Z</time>
      </trkpt>
      <trkpt lat="43.50497" lon="6.59659">
        <ele>62.5</ele>
        <time>2012-02-10T14:53:46Z</time>
      </trkpt>
      <trkpt lat="43.50496" lon="6.59671">
        <ele>63.400002</ele>
        <time>2012-02-10T14:53:55Z</time>
      </trkpt>
      <trkpt lat="43.50497" lon="6.59682">
        <ele>63.700001</ele>
        <time>2012-02-10T14:54:06Z</time>
      </trkpt>
      <trkpt lat="43.50498" lon="6.59694">
        <ele>63.900002</ele>
        <time>2012-02-10T14:54:15Z</time>
      </trkpt>
      <trkpt lat="43.50497" lon="6.59706">
        <ele>63.599998</ele>
        <time>2012-02-10T14:54:25Z</time>
      </trkpt>
      <trkpt lat="43.50496" lon="6.59718">
        <ele>63.599998</ele>
        <time>2012-02-10T14:54:34Z</time>
      </trkpt>
      <trkpt lat="43.50496" lon="6.5972">
        <ele>63.5</ele>
        <time>2012-02-10T14:54:35Z</time>
      </trkpt>
      <trkpt lat="43.50495" lon="6.59743">
        <ele>64.800003</ele>
        <time>2012-02-10T14:54:55Z</time>
      </trkpt>
      <trkpt lat="43.505" lon="6.59752">
        <ele>64.5</ele>
        <time>2012-02-10T14:55:05Z</time>
      </trkpt>
      <trkpt lat="43.50506" lon="6.59759">
        <ele>65.099998</ele>
        <time>2012-02-10T14:55:14Z</time>
      </trkpt>
      <trkpt lat="43.50513" lon="6.59766">
        <ele>64.900002</ele>
        <time>2012-02-10T14:55:23Z</time>
      </trkpt>
      <trkpt lat="43.50518" lon="6.59776">
        <ele>65.599998</ele>
        <time>2012-02-10T14:55:32Z</time>
      </trkpt>
      <trkpt lat="43.50519" lon="6.59787">
        <ele>66.599998</ele>
        <time>2012-02-10T14:55:43Z</time>
      </trkpt>
      <trkpt lat="43.50519" lon="6.59788">
        <ele>66.5</ele>
        <time>2012-02-10T14:55:44Z</time>
      </trkpt>
      <trkpt lat="43.50513" lon="6.59809">
        <ele>66.5</ele>
        <time>2012-02-10T14:56:00Z</time>
      </trkpt>
      <trkpt lat="43.50511" lon="6.5982">
        <ele>67.300003</ele>
        <time>2012-02-10T14:56:09Z</time>
      </trkpt>
      <trkpt lat="43.50511" lon="6.59833">
        <ele>67.800003</ele>
        <time>2012-02-10T14:56:19Z</time>
      </trkpt>
      <trkpt lat="43.50512" lon="6.59844">
        <ele>68.099998</ele>
        <time>2012-02-10T14:56:28Z</time>
      </trkpt>
      <trkpt lat="43.50513" lon="6.59856">
        <ele>68.300003</ele>
        <time>2012-02-10T14:56:39Z</time>
      </trkpt>
      <trkpt lat="43.50514" lon="6.59868">
        <ele>69.300003</ele>
        <time>2012-02-10T14:56:49Z</time>
      </trkpt>
      <trkpt lat="43.50514" lon="6.59869">
        <ele>69.099998</ele>
        <time>2012-02-10T14:56:50Z</time>
      </trkpt>
      <trkpt lat="43.50515" lon="6.59891">
        <ele>68.400002</ele>
        <time>2012-02-10T14:57:07Z</time>
      </trkpt>
      <trkpt lat="43.50514" lon="6.59903">
        <ele>68.400002</ele>
        <time>2012-02-10T14:57:16Z</time>
      </trkpt>
      <trkpt lat="43.50514" lon="6.59915">
        <ele>67.800003</ele>
        <time>2012-02-10T14:57:26Z</time>
      </trkpt>
      <trkpt lat="43.50517" lon="6.59926">
        <ele>67.900002</ele>
        <time>2012-02-10T14:57:36Z</time>
      </trkpt>
      <trkpt lat="43.50521" lon="6.59936">
        <ele>68.300003</ele>
        <time>2012-02-10T14:57:45Z</time>
      </trkpt>
      <trkpt lat="43.50528" lon="6.5994">
        <ele>67.800003</ele>
        <time>2012-02-10T14:57:54Z</time>
      </trkpt>
      <trkpt lat="43.50529" lon="6.59941">
        <ele>67.599998</ele>
        <time>2012-02-10T14:57:55Z</time>
      </trkpt>
      <trkpt lat="43.50544" lon="6.5995">
        <ele>68.5</ele>
        <time>2012-02-10T14:58:12Z</time>
      </trkpt>
      <trkpt lat="43.50551" lon="6.59957">
        <ele>68.599998</ele>
        <time>2012-02-10T14:58:23Z</time>
      </trkpt>
      <trkpt lat="43.50559" lon="6.59962">
        <ele>68.400002</ele>
        <time>2012-02-10T14:58:33Z</time>
      </trkpt>
      <trkpt lat="43.50567" lon="6.59964">
        <ele>68.800003</ele>
        <time>2012-02-10T14:58:43Z</time>
      </trkpt>
      <trkpt lat="43.50575" lon="6.59967">
        <ele>69</ele>
        <time>2012-02-10T14:58:52Z</time>
      </trkpt>
      <trkpt lat="43.50583" lon="6.59973">
        <ele>69.599998</ele>
        <time>2012-02-10T14:59:07Z</time>
      </trkpt>
      <trkpt lat="43.50584" lon="6.59973">
        <ele>69.5</ele>
        <time>2012-02-10T14:59:08Z</time>
      </trkpt>
      <trkpt lat="43.50598" lon="6.59984">
        <ele>69.800003</ele>
        <time>2012-02-10T14:59:32Z</time>
      </trkpt>
      <trkpt lat="43.50605" lon="6.59992">
        <ele>70.599998</ele>
        <time>2012-02-10T14:59:43Z</time>
      </trkpt>
      <trkpt lat="43.50612" lon="6.60001">
        <ele>71.199997</ele>
        <time>2012-02-10T14:59:57Z</time>
      </trkpt>
      <trkpt lat="43.50619" lon="6.60008">
        <ele>73.400002</ele>
        <time>2012-02-10T15:00:11Z</time>
      </trkpt>
      <trkpt lat="43.50619" lon="6.60009">
        <ele>73.5</ele>
        <time>2012-02-10T15:00:12Z</time>
      </trkpt>
      <trkpt lat="43.50632" lon="6.60022">
        <ele>74.599998</ele>
        <time>2012-02-10T15:00:37Z</time>
      </trkpt>
      <trkpt lat="43.50638" lon="6.60032">
        <ele>74.599998</ele>
        <time>2012-02-10T15:00:57Z</time>
      </trkpt>
      <trkpt lat="43.5064" lon="6.60043">
        <ele>76.300003</ele>
        <time>2012-02-10T15:01:11Z</time>
      </trkpt>
      <trkpt lat="43.50635" lon="6.60054">
        <ele>76.400002</ele>
        <time>2012-02-10T15:01:20Z</time>
      </trkpt>
      <trkpt lat="43.50635" lon="6.60055">
        <ele>76.5</ele>
        <time>2012-02-10T15:01:21Z</time>
      </trkpt>
      <trkpt lat="43.50625" lon="6.60072">
        <ele>77.199997</ele>
        <time>2012-02-10T15:01:37Z</time>
      </trkpt>
      <trkpt lat="43.50619" lon="6.60081">
        <ele>78.099998</ele>
        <time>2012-02-10T15:01:49Z</time>
      </trkpt>
      <trkpt lat="43.50614" lon="6.60091">
        <ele>77.599998</ele>
        <time>2012-02-10T15:02:00Z</time>
      </trkpt>
      <trkpt lat="43.50608" lon="6.601">
        <ele>79.199997</ele>
        <time>2012-02-10T15:02:10Z</time>
      </trkpt>
      <trkpt lat="43.50602" lon="6.60108">
        <ele>79.599998</ele>
        <time>2012-02-10T15:02:21Z</time>
      </trkpt>
      <trkpt lat="43.50602" lon="6.60108">
        <ele>79.300003</ele>
        <time>2012-02-10T15:02:22Z</time>
      </trkpt>
      <trkpt lat="43.5059" lon="6.60124">
        <ele>80.300003</ele>
        <time>2012-02-10T15:02:39Z</time>
      </trkpt>
      <trkpt lat="43.50584" lon="6.60133">
        <ele>80.300003</ele>
        <time>2012-02-10T15:02:49Z</time>
      </trkpt>
      <trkpt lat="43.50579" lon="6.60141">
        <ele>80.900002</ele>
        <time>2012-02-10T15:02:56Z</time>
      </trkpt>
      <trkpt lat="43.50572" lon="6.60149">
        <ele>80.199997</ele>
        <time>2012-02-10T15:03:06Z</time>
      </trkpt>
      <trkpt lat="43.50567" lon="6.60158">
        <ele>80.099998</ele>
        <time>2012-02-10T15:03:14Z</time>
      </trkpt>
      <trkpt lat="43.50561" lon="6.60166">
        <ele>80.300003</ele>
        <time>2012-02-10T15:03:22Z</time>
      </trkpt>
      <trkpt lat="43.5056" lon="6.60166">
        <ele>80.199997</ele>
        <time>2012-02-10T15:03:23Z</time>
      </trkpt>
      <trkpt lat="43.50548" lon="6.60179">
        <ele>79.699997</ele>
        <time>2012-02-10T15:03:40Z</time>
      </trkpt>
      <trkpt lat="43.50541" lon="6.60187">
        <ele>79.699997</ele>
        <time>2012-02-10T15:03:48Z</time>
      </trkpt>
      <trkpt lat="43.50534" lon="6.60193">
        <ele>80.400002</ele>
        <time>2012-02-10T15:03:56Z</time>
      </trkpt>
      <trkpt lat="43.50527" lon="6.60199">
        <ele>79.800003</ele>
        <time>2012-02-10T15:04:06Z</time>
      </trkpt>
      <trkpt lat="43.5052" lon="6.60205">
        <ele>80.599998</ele>
        <time>2012-02-10T15:04:13Z</time>
      </trkpt>
      <trkpt lat="43.50513" lon="6.60211">
        <ele>80.199997</ele>
        <time>2012-02-10T15:04:22Z</time>
      </trkpt>
      <trkpt lat="43.50505" lon="6.60217">
        <ele>79.400002</ele>
        <time>2012-02-10T15:04:32Z</time>
      </trkpt>
      <trkpt lat="43.50504" lon="6.60218">
        <ele>79.5</ele>
        <time>2012-02-10T15:04:33Z</time>
      </trkpt>
      <trkpt lat="43.50489" lon="6.60224">
        <ele>79.699997</ele>
        <time>2012-02-10T15:04:51Z</time>
      </trkpt>
      <trkpt lat="43.50481" lon="6.60226">
        <ele>80</ele>
        <time>2012-02-10T15:05:00Z</time>
      </trkpt>
      <trkpt lat="43.50472" lon="6.60223">
        <ele>79.199997</ele>
        <time>2012-02-10T15:05:10Z</time>
      </trkpt>
      <trkpt lat="43.50465" lon="6.60216">
        <ele>78.300003</ele>
        <time>2012-02-10T15:05:19Z</time>
      </trkpt>
      <trkpt lat="43.50456" lon="6.60216">
        <ele>78.300003</ele>
        <time>2012-02-10T15:05:44Z</time>
      </trkpt>
      <trkpt lat="43.50456" lon="6.60216">
        <ele>78.300003</ele>
        <time>2012-02-10T15:05:45Z</time>
      </trkpt>
    </trkseg>
  </trk>
</gpx>